<?xml version="1.0" encoding="UTF-8" standalone="no" ?>
<gpx xmlns="http://www.topografix.com/GPX/1/1" xmlns:xsi="http://www.w3.org/2001/XMLSchema-instance" xsi:schemaLocation="http://www.topografix.com/GPX/1/1 http://www.topografix.com/GPX/1/1/gpx.xsd" version="1.1" creator="VisuGPX - https://www.visugpx.com">
  <metadata>
    <name>CURRENT TRACK- 15AVR 2020 Chapelle 2</name>
    <desc><![CDATA[CURRENT TRACK- 15AVR 2020 Chapelle 2
HW trace réalisée 
]]></desc>
  </metadata>
  <trk>
    <name><![CDATA[CURRENT TRACK- 15AVR 2020 Chapelle 2]]></name>
    <trkseg>
      <trkpt lat="46.26843" lon="6.25613">
        <ele>372.12</ele>
        <time>2020-04-15T11:31:17Z</time>
      </trkpt>
      <trkpt lat="46.26844" lon="6.25586">
        <ele>372.12</ele>
        <time>2020-04-15T11:31:22Z</time>
      </trkpt>
      <trkpt lat="46.26861" lon="6.25586">
        <ele>372.12</ele>
        <time>2020-04-15T11:31:28Z</time>
      </trkpt>
      <trkpt lat="46.26881" lon="6.25597">
        <ele>372.12</ele>
        <time>2020-04-15T11:31:34Z</time>
      </trkpt>
      <trkpt lat="46.26901" lon="6.2561">
        <ele>372.12</ele>
        <time>2020-04-15T11:31:40Z</time>
      </trkpt>
      <trkpt lat="46.26921" lon="6.25622">
        <ele>372.12</ele>
        <time>2020-04-15T11:31:46Z</time>
      </trkpt>
      <trkpt lat="46.26938" lon="6.25635">
        <ele>374.38</ele>
        <time>2020-04-15T11:31:52Z</time>
      </trkpt>
      <trkpt lat="46.26955" lon="6.25657">
        <ele>374.97</ele>
        <time>2020-04-15T11:31:58Z</time>
      </trkpt>
      <trkpt lat="46.26964" lon="6.25681">
        <ele>375.17</ele>
        <time>2020-04-15T11:32:03Z</time>
      </trkpt>
      <trkpt lat="46.2698" lon="6.25695">
        <ele>375.7</ele>
        <time>2020-04-15T11:32:08Z</time>
      </trkpt>
      <trkpt lat="46.26998" lon="6.25711">
        <ele>375.82</ele>
        <time>2020-04-15T11:32:13Z</time>
      </trkpt>
      <trkpt lat="46.27014" lon="6.25725">
        <ele>375.58</ele>
        <time>2020-04-15T11:32:17Z</time>
      </trkpt>
      <trkpt lat="46.2703" lon="6.25738">
        <ele>375.45</ele>
        <time>2020-04-15T11:32:21Z</time>
      </trkpt>
      <trkpt lat="46.27049" lon="6.25754">
        <ele>375.4</ele>
        <time>2020-04-15T11:32:26Z</time>
      </trkpt>
      <trkpt lat="46.27067" lon="6.25764">
        <ele>375.34</ele>
        <time>2020-04-15T11:32:31Z</time>
      </trkpt>
      <trkpt lat="46.27087" lon="6.25775">
        <ele>375.28</ele>
        <time>2020-04-15T11:32:36Z</time>
      </trkpt>
      <trkpt lat="46.27105" lon="6.25782">
        <ele>375.13</ele>
        <time>2020-04-15T11:32:40Z</time>
      </trkpt>
      <trkpt lat="46.27123" lon="6.25789">
        <ele>375.08</ele>
        <time>2020-04-15T11:32:44Z</time>
      </trkpt>
      <trkpt lat="46.2714" lon="6.25798">
        <ele>374.97</ele>
        <time>2020-04-15T11:32:48Z</time>
      </trkpt>
      <trkpt lat="46.27158" lon="6.25811">
        <ele>374.73</ele>
        <time>2020-04-15T11:32:53Z</time>
      </trkpt>
      <trkpt lat="46.27177" lon="6.25824">
        <ele>374.68</ele>
        <time>2020-04-15T11:32:59Z</time>
      </trkpt>
      <trkpt lat="46.27194" lon="6.25836">
        <ele>374.68</ele>
        <time>2020-04-15T11:33:04Z</time>
      </trkpt>
      <trkpt lat="46.27214" lon="6.25851">
        <ele>374.68</ele>
        <time>2020-04-15T11:33:09Z</time>
      </trkpt>
      <trkpt lat="46.27231" lon="6.25864">
        <ele>374.68</ele>
        <time>2020-04-15T11:33:13Z</time>
      </trkpt>
      <trkpt lat="46.27249" lon="6.25878">
        <ele>374.68</ele>
        <time>2020-04-15T11:33:17Z</time>
      </trkpt>
      <trkpt lat="46.27268" lon="6.25892">
        <ele>374.68</ele>
        <time>2020-04-15T11:33:21Z</time>
      </trkpt>
      <trkpt lat="46.27287" lon="6.25905">
        <ele>374.68</ele>
        <time>2020-04-15T11:33:25Z</time>
      </trkpt>
      <trkpt lat="46.27304" lon="6.25918">
        <ele>374.68</ele>
        <time>2020-04-15T11:33:30Z</time>
      </trkpt>
      <trkpt lat="46.27323" lon="6.2593">
        <ele>374.68</ele>
        <time>2020-04-15T11:33:35Z</time>
      </trkpt>
      <trkpt lat="46.2734" lon="6.25947">
        <ele>374.68</ele>
        <time>2020-04-15T11:33:40Z</time>
      </trkpt>
      <trkpt lat="46.27359" lon="6.2596">
        <ele>374.68</ele>
        <time>2020-04-15T11:33:45Z</time>
      </trkpt>
      <trkpt lat="46.27379" lon="6.25972">
        <ele>374.68</ele>
        <time>2020-04-15T11:33:50Z</time>
      </trkpt>
      <trkpt lat="46.27402" lon="6.25971">
        <ele>374.68</ele>
        <time>2020-04-15T11:33:55Z</time>
      </trkpt>
      <trkpt lat="46.27421" lon="6.25955">
        <ele>374.68</ele>
        <time>2020-04-15T11:34:00Z</time>
      </trkpt>
      <trkpt lat="46.27434" lon="6.25929">
        <ele>374.68</ele>
        <time>2020-04-15T11:34:05Z</time>
      </trkpt>
      <trkpt lat="46.27443" lon="6.25907">
        <ele>374.68</ele>
        <time>2020-04-15T11:34:09Z</time>
      </trkpt>
      <trkpt lat="46.27453" lon="6.25885">
        <ele>374.68</ele>
        <time>2020-04-15T11:34:13Z</time>
      </trkpt>
      <trkpt lat="46.27465" lon="6.25857">
        <ele>374.68</ele>
        <time>2020-04-15T11:34:18Z</time>
      </trkpt>
      <trkpt lat="46.27475" lon="6.25836">
        <ele>374.68</ele>
        <time>2020-04-15T11:34:22Z</time>
      </trkpt>
      <trkpt lat="46.27489" lon="6.2581">
        <ele>374.68</ele>
        <time>2020-04-15T11:34:27Z</time>
      </trkpt>
      <trkpt lat="46.27503" lon="6.25791">
        <ele>374.68</ele>
        <time>2020-04-15T11:34:31Z</time>
      </trkpt>
      <trkpt lat="46.27521" lon="6.25784">
        <ele>374.68</ele>
        <time>2020-04-15T11:34:35Z</time>
      </trkpt>
      <trkpt lat="46.2754" lon="6.25794">
        <ele>374.68</ele>
        <time>2020-04-15T11:34:39Z</time>
      </trkpt>
      <trkpt lat="46.2756" lon="6.25807">
        <ele>374.68</ele>
        <time>2020-04-15T11:34:43Z</time>
      </trkpt>
      <trkpt lat="46.27581" lon="6.2582">
        <ele>374.68</ele>
        <time>2020-04-15T11:34:47Z</time>
      </trkpt>
      <trkpt lat="46.27603" lon="6.25834">
        <ele>374.68</ele>
        <time>2020-04-15T11:34:51Z</time>
      </trkpt>
      <trkpt lat="46.27621" lon="6.25848">
        <ele>374.68</ele>
        <time>2020-04-15T11:34:55Z</time>
      </trkpt>
      <trkpt lat="46.27639" lon="6.2586">
        <ele>374.68</ele>
        <time>2020-04-15T11:34:59Z</time>
      </trkpt>
      <trkpt lat="46.27657" lon="6.25872">
        <ele>374.68</ele>
        <time>2020-04-15T11:35:03Z</time>
      </trkpt>
      <trkpt lat="46.27676" lon="6.25885">
        <ele>374.68</ele>
        <time>2020-04-15T11:35:07Z</time>
      </trkpt>
      <trkpt lat="46.27696" lon="6.25901">
        <ele>374.68</ele>
        <time>2020-04-15T11:35:11Z</time>
      </trkpt>
      <trkpt lat="46.27716" lon="6.25916">
        <ele>374.68</ele>
        <time>2020-04-15T11:35:15Z</time>
      </trkpt>
      <trkpt lat="46.27735" lon="6.25932">
        <ele>374.68</ele>
        <time>2020-04-15T11:35:19Z</time>
      </trkpt>
      <trkpt lat="46.27755" lon="6.25945">
        <ele>374.68</ele>
        <time>2020-04-15T11:35:23Z</time>
      </trkpt>
      <trkpt lat="46.27777" lon="6.25958">
        <ele>374.68</ele>
        <time>2020-04-15T11:35:27Z</time>
      </trkpt>
      <trkpt lat="46.27796" lon="6.25959">
        <ele>374.68</ele>
        <time>2020-04-15T11:35:31Z</time>
      </trkpt>
      <trkpt lat="46.27805" lon="6.25936">
        <ele>374.68</ele>
        <time>2020-04-15T11:35:36Z</time>
      </trkpt>
      <trkpt lat="46.27812" lon="6.25911">
        <ele>374.68</ele>
        <time>2020-04-15T11:35:41Z</time>
      </trkpt>
      <trkpt lat="46.2782" lon="6.25883">
        <ele>374.68</ele>
        <time>2020-04-15T11:35:47Z</time>
      </trkpt>
      <trkpt lat="46.27825" lon="6.25857">
        <ele>374.68</ele>
        <time>2020-04-15T11:35:53Z</time>
      </trkpt>
      <trkpt lat="46.27831" lon="6.25832">
        <ele>368.9</ele>
        <time>2020-04-15T11:35:59Z</time>
      </trkpt>
      <trkpt lat="46.27838" lon="6.25805">
        <ele>368.91</ele>
        <time>2020-04-15T11:36:06Z</time>
      </trkpt>
      <trkpt lat="46.27846" lon="6.25779">
        <ele>369.29</ele>
        <time>2020-04-15T11:36:23Z</time>
      </trkpt>
      <trkpt lat="46.27854" lon="6.25752">
        <ele>369.51</ele>
        <time>2020-04-15T11:36:41Z</time>
      </trkpt>
      <trkpt lat="46.27863" lon="6.25724">
        <ele>369.64</ele>
        <time>2020-04-15T11:36:47Z</time>
      </trkpt>
      <trkpt lat="46.27871" lon="6.25699">
        <ele>369.69</ele>
        <time>2020-04-15T11:36:52Z</time>
      </trkpt>
      <trkpt lat="46.27878" lon="6.25674">
        <ele>369.75</ele>
        <time>2020-04-15T11:36:58Z</time>
      </trkpt>
      <trkpt lat="46.27886" lon="6.25646">
        <ele>369.57</ele>
        <time>2020-04-15T11:37:06Z</time>
      </trkpt>
      <trkpt lat="46.27895" lon="6.25618">
        <ele>369.69</ele>
        <time>2020-04-15T11:37:12Z</time>
      </trkpt>
      <trkpt lat="46.27903" lon="6.25591">
        <ele>369.58</ele>
        <time>2020-04-15T11:37:17Z</time>
      </trkpt>
      <trkpt lat="46.2791" lon="6.25566">
        <ele>369.39</ele>
        <time>2020-04-15T11:37:22Z</time>
      </trkpt>
      <trkpt lat="46.2792" lon="6.2554">
        <ele>369.21</ele>
        <time>2020-04-15T11:37:28Z</time>
      </trkpt>
      <trkpt lat="46.27928" lon="6.25514">
        <ele>369.1</ele>
        <time>2020-04-15T11:37:34Z</time>
      </trkpt>
      <trkpt lat="46.27935" lon="6.25486">
        <ele>369.01</ele>
        <time>2020-04-15T11:37:40Z</time>
      </trkpt>
      <trkpt lat="46.2794" lon="6.25461">
        <ele>369.09</ele>
        <time>2020-04-15T11:37:46Z</time>
      </trkpt>
      <trkpt lat="46.27941" lon="6.25431">
        <ele>368.63</ele>
        <time>2020-04-15T11:37:53Z</time>
      </trkpt>
      <trkpt lat="46.27949" lon="6.25408">
        <ele>368.72</ele>
        <time>2020-04-15T11:37:59Z</time>
      </trkpt>
      <trkpt lat="46.27958" lon="6.25383">
        <ele>368.74</ele>
        <time>2020-04-15T11:38:06Z</time>
      </trkpt>
      <trkpt lat="46.27968" lon="6.25356">
        <ele>368.99</ele>
        <time>2020-04-15T11:38:12Z</time>
      </trkpt>
      <trkpt lat="46.27977" lon="6.2533">
        <ele>369.11</ele>
        <time>2020-04-15T11:38:18Z</time>
      </trkpt>
      <trkpt lat="46.27987" lon="6.25301">
        <ele>369.39</ele>
        <time>2020-04-15T11:38:24Z</time>
      </trkpt>
      <trkpt lat="46.27996" lon="6.25277">
        <ele>369.54</ele>
        <time>2020-04-15T11:38:29Z</time>
      </trkpt>
      <trkpt lat="46.28007" lon="6.25252">
        <ele>369.49</ele>
        <time>2020-04-15T11:38:34Z</time>
      </trkpt>
      <trkpt lat="46.28019" lon="6.25232">
        <ele>369.47</ele>
        <time>2020-04-15T11:38:39Z</time>
      </trkpt>
      <trkpt lat="46.28033" lon="6.25212">
        <ele>369.82</ele>
        <time>2020-04-15T11:38:47Z</time>
      </trkpt>
      <trkpt lat="46.28045" lon="6.25191">
        <ele>370.14</ele>
        <time>2020-04-15T11:38:51Z</time>
      </trkpt>
      <trkpt lat="46.28058" lon="6.25166">
        <ele>369.93</ele>
        <time>2020-04-15T11:38:55Z</time>
      </trkpt>
      <trkpt lat="46.2807" lon="6.25143">
        <ele>369.48</ele>
        <time>2020-04-15T11:38:59Z</time>
      </trkpt>
      <trkpt lat="46.28083" lon="6.25118">
        <ele>369.13</ele>
        <time>2020-04-15T11:39:04Z</time>
      </trkpt>
      <trkpt lat="46.28094" lon="6.25093">
        <ele>369.13</ele>
        <time>2020-04-15T11:39:09Z</time>
      </trkpt>
      <trkpt lat="46.28104" lon="6.25069">
        <ele>369.13</ele>
        <time>2020-04-15T11:39:14Z</time>
      </trkpt>
      <trkpt lat="46.28113" lon="6.25045">
        <ele>369.13</ele>
        <time>2020-04-15T11:39:19Z</time>
      </trkpt>
      <trkpt lat="46.28124" lon="6.25018">
        <ele>369.13</ele>
        <time>2020-04-15T11:39:24Z</time>
      </trkpt>
      <trkpt lat="46.28134" lon="6.24993">
        <ele>369.13</ele>
        <time>2020-04-15T11:39:29Z</time>
      </trkpt>
      <trkpt lat="46.28145" lon="6.24968">
        <ele>369.13</ele>
        <time>2020-04-15T11:39:35Z</time>
      </trkpt>
      <trkpt lat="46.28156" lon="6.24942">
        <ele>369.13</ele>
        <time>2020-04-15T11:39:41Z</time>
      </trkpt>
      <trkpt lat="46.28166" lon="6.24917">
        <ele>369.13</ele>
        <time>2020-04-15T11:39:46Z</time>
      </trkpt>
      <trkpt lat="46.28177" lon="6.24895">
        <ele>369.13</ele>
        <time>2020-04-15T11:39:51Z</time>
      </trkpt>
      <trkpt lat="46.28194" lon="6.24879">
        <ele>369.13</ele>
        <time>2020-04-15T11:39:57Z</time>
      </trkpt>
      <trkpt lat="46.28215" lon="6.24874">
        <ele>369.13</ele>
        <time>2020-04-15T11:40:02Z</time>
      </trkpt>
      <trkpt lat="46.28237" lon="6.24877">
        <ele>369.13</ele>
        <time>2020-04-15T11:40:07Z</time>
      </trkpt>
      <trkpt lat="46.28256" lon="6.24884">
        <ele>369.13</ele>
        <time>2020-04-15T11:40:12Z</time>
      </trkpt>
      <trkpt lat="46.28275" lon="6.24896">
        <ele>369.13</ele>
        <time>2020-04-15T11:40:20Z</time>
      </trkpt>
      <trkpt lat="46.28289" lon="6.24915">
        <ele>369.13</ele>
        <time>2020-04-15T11:40:26Z</time>
      </trkpt>
      <trkpt lat="46.28303" lon="6.24936">
        <ele>369.13</ele>
        <time>2020-04-15T11:40:32Z</time>
      </trkpt>
      <trkpt lat="46.28318" lon="6.24955">
        <ele>369.13</ele>
        <time>2020-04-15T11:40:39Z</time>
      </trkpt>
      <trkpt lat="46.28333" lon="6.24976">
        <ele>369.13</ele>
        <time>2020-04-15T11:40:45Z</time>
      </trkpt>
      <trkpt lat="46.28349" lon="6.24996">
        <ele>369.13</ele>
        <time>2020-04-15T11:40:50Z</time>
      </trkpt>
      <trkpt lat="46.28365" lon="6.25015">
        <ele>369.13</ele>
        <time>2020-04-15T11:40:56Z</time>
      </trkpt>
      <trkpt lat="46.28383" lon="6.25027">
        <ele>369.13</ele>
        <time>2020-04-15T11:41:01Z</time>
      </trkpt>
      <trkpt lat="46.28402" lon="6.25035">
        <ele>369.13</ele>
        <time>2020-04-15T11:41:05Z</time>
      </trkpt>
      <trkpt lat="46.28422" lon="6.25042">
        <ele>369.13</ele>
        <time>2020-04-15T11:41:09Z</time>
      </trkpt>
      <trkpt lat="46.28441" lon="6.25049">
        <ele>369.13</ele>
        <time>2020-04-15T11:41:13Z</time>
      </trkpt>
      <trkpt lat="46.28458" lon="6.25057">
        <ele>369.13</ele>
        <time>2020-04-15T11:41:18Z</time>
      </trkpt>
      <trkpt lat="46.28477" lon="6.25068">
        <ele>369.13</ele>
        <time>2020-04-15T11:41:24Z</time>
      </trkpt>
      <trkpt lat="46.28494" lon="6.25081">
        <ele>369.13</ele>
        <time>2020-04-15T11:41:30Z</time>
      </trkpt>
      <trkpt lat="46.28514" lon="6.25095">
        <ele>369.13</ele>
        <time>2020-04-15T11:41:36Z</time>
      </trkpt>
      <trkpt lat="46.28533" lon="6.25107">
        <ele>369.13</ele>
        <time>2020-04-15T11:41:41Z</time>
      </trkpt>
      <trkpt lat="46.2855" lon="6.25123">
        <ele>369.13</ele>
        <time>2020-04-15T11:41:46Z</time>
      </trkpt>
      <trkpt lat="46.28567" lon="6.25144">
        <ele>369.13</ele>
        <time>2020-04-15T11:41:51Z</time>
      </trkpt>
      <trkpt lat="46.28581" lon="6.25162">
        <ele>369.13</ele>
        <time>2020-04-15T11:41:55Z</time>
      </trkpt>
      <trkpt lat="46.28595" lon="6.25182">
        <ele>369.13</ele>
        <time>2020-04-15T11:41:59Z</time>
      </trkpt>
      <trkpt lat="46.28609" lon="6.25204">
        <ele>369.13</ele>
        <time>2020-04-15T11:42:04Z</time>
      </trkpt>
      <trkpt lat="46.28622" lon="6.25225">
        <ele>369.13</ele>
        <time>2020-04-15T11:42:09Z</time>
      </trkpt>
      <trkpt lat="46.28635" lon="6.25245">
        <ele>369.13</ele>
        <time>2020-04-15T11:42:14Z</time>
      </trkpt>
      <trkpt lat="46.2865" lon="6.25266">
        <ele>369.13</ele>
        <time>2020-04-15T11:42:19Z</time>
      </trkpt>
      <trkpt lat="46.28664" lon="6.25284">
        <ele>369.13</ele>
        <time>2020-04-15T11:42:23Z</time>
      </trkpt>
      <trkpt lat="46.28679" lon="6.25302">
        <ele>369.13</ele>
        <time>2020-04-15T11:42:27Z</time>
      </trkpt>
      <trkpt lat="46.28695" lon="6.25322">
        <ele>369.13</ele>
        <time>2020-04-15T11:42:31Z</time>
      </trkpt>
      <trkpt lat="46.28709" lon="6.25338">
        <ele>369.13</ele>
        <time>2020-04-15T11:42:35Z</time>
      </trkpt>
      <trkpt lat="46.28723" lon="6.25355">
        <ele>369.13</ele>
        <time>2020-04-15T11:42:40Z</time>
      </trkpt>
      <trkpt lat="46.28738" lon="6.25375">
        <ele>369.13</ele>
        <time>2020-04-15T11:42:47Z</time>
      </trkpt>
      <trkpt lat="46.28752" lon="6.25395">
        <ele>369.13</ele>
        <time>2020-04-15T11:42:53Z</time>
      </trkpt>
      <trkpt lat="46.28765" lon="6.25418">
        <ele>369.13</ele>
        <time>2020-04-15T11:42:59Z</time>
      </trkpt>
      <trkpt lat="46.28779" lon="6.25437">
        <ele>365.52</ele>
        <time>2020-04-15T11:43:04Z</time>
      </trkpt>
      <trkpt lat="46.28792" lon="6.25457">
        <ele>365.73</ele>
        <time>2020-04-15T11:43:10Z</time>
      </trkpt>
      <trkpt lat="46.28806" lon="6.25478">
        <ele>365.35</ele>
        <time>2020-04-15T11:43:18Z</time>
      </trkpt>
      <trkpt lat="46.2882" lon="6.25498">
        <ele>364.53</ele>
        <time>2020-04-15T11:43:24Z</time>
      </trkpt>
      <trkpt lat="46.28832" lon="6.25521">
        <ele>364.34</ele>
        <time>2020-04-15T11:43:29Z</time>
      </trkpt>
      <trkpt lat="46.28845" lon="6.25548">
        <ele>364.12</ele>
        <time>2020-04-15T11:43:34Z</time>
      </trkpt>
      <trkpt lat="46.28855" lon="6.25572">
        <ele>364.08</ele>
        <time>2020-04-15T11:43:38Z</time>
      </trkpt>
      <trkpt lat="46.28871" lon="6.25595">
        <ele>364.2</ele>
        <time>2020-04-15T11:43:42Z</time>
      </trkpt>
      <trkpt lat="46.28889" lon="6.25612">
        <ele>364.14</ele>
        <time>2020-04-15T11:43:46Z</time>
      </trkpt>
      <trkpt lat="46.28906" lon="6.25629">
        <ele>363.62</ele>
        <time>2020-04-15T11:43:50Z</time>
      </trkpt>
      <trkpt lat="46.28924" lon="6.25645">
        <ele>362.9</ele>
        <time>2020-04-15T11:43:55Z</time>
      </trkpt>
      <trkpt lat="46.28941" lon="6.25657">
        <ele>362.55</ele>
        <time>2020-04-15T11:44:01Z</time>
      </trkpt>
      <trkpt lat="46.28953" lon="6.25633">
        <ele>361.67</ele>
        <time>2020-04-15T11:44:08Z</time>
      </trkpt>
      <trkpt lat="46.28964" lon="6.25609">
        <ele>361.21</ele>
        <time>2020-04-15T11:44:15Z</time>
      </trkpt>
      <trkpt lat="46.28972" lon="6.25587">
        <ele>360.9</ele>
        <time>2020-04-15T11:44:21Z</time>
      </trkpt>
      <trkpt lat="46.2898" lon="6.25569">
        <ele>360.9</ele>
        <time>2020-04-15T11:44:30Z</time>
      </trkpt>
      <trkpt lat="46.29003" lon="6.25568">
        <ele>360.8</ele>
        <time>2020-04-15T11:44:37Z</time>
      </trkpt>
      <trkpt lat="46.29032" lon="6.25571">
        <ele>360.31</ele>
        <time>2020-04-15T11:44:45Z</time>
      </trkpt>
      <trkpt lat="46.29061" lon="6.25572">
        <ele>359.69</ele>
        <time>2020-04-15T11:44:54Z</time>
      </trkpt>
      <trkpt lat="46.29101" lon="6.25569">
        <ele>356.04</ele>
        <time>2020-04-15T11:45:10Z</time>
      </trkpt>
      <trkpt lat="46.29143" lon="6.25567">
        <ele>349.37</ele>
        <time>2020-04-15T11:45:33Z</time>
      </trkpt>
      <trkpt lat="46.29159" lon="6.25566">
        <ele>347.72</ele>
        <time>2020-04-15T11:46:26Z</time>
      </trkpt>
      <trkpt lat="46.2918" lon="6.25568">
        <ele>349.28</ele>
        <time>2020-04-15T11:47:00Z</time>
      </trkpt>
      <trkpt lat="46.292" lon="6.25574">
        <ele>354.46</ele>
        <time>2020-04-15T11:47:32Z</time>
      </trkpt>
      <trkpt lat="46.29216" lon="6.25555">
        <ele>355.41</ele>
        <time>2020-04-15T11:47:55Z</time>
      </trkpt>
      <trkpt lat="46.29244" lon="6.25547">
        <ele>357.77</ele>
        <time>2020-04-15T11:48:14Z</time>
      </trkpt>
      <trkpt lat="46.2927" lon="6.25533">
        <ele>358.37</ele>
        <time>2020-04-15T11:48:28Z</time>
      </trkpt>
      <trkpt lat="46.29299" lon="6.2553">
        <ele>358.41</ele>
        <time>2020-04-15T11:48:39Z</time>
      </trkpt>
      <trkpt lat="46.29324" lon="6.25541">
        <ele>357.99</ele>
        <time>2020-04-15T11:48:49Z</time>
      </trkpt>
      <trkpt lat="46.29348" lon="6.25547">
        <ele>358.17</ele>
        <time>2020-04-15T11:48:56Z</time>
      </trkpt>
      <trkpt lat="46.29376" lon="6.25554">
        <ele>358.12</ele>
        <time>2020-04-15T11:49:02Z</time>
      </trkpt>
      <trkpt lat="46.29401" lon="6.25563">
        <ele>357.49</ele>
        <time>2020-04-15T11:49:08Z</time>
      </trkpt>
      <trkpt lat="46.29425" lon="6.25577">
        <ele>356.77</ele>
        <time>2020-04-15T11:49:18Z</time>
      </trkpt>
      <trkpt lat="46.29451" lon="6.25585">
        <ele>356.75</ele>
        <time>2020-04-15T11:49:27Z</time>
      </trkpt>
      <trkpt lat="46.29478" lon="6.25579">
        <ele>357.41</ele>
        <time>2020-04-15T11:49:42Z</time>
      </trkpt>
      <trkpt lat="46.29501" lon="6.25574">
        <ele>358.13</ele>
        <time>2020-04-15T11:49:51Z</time>
      </trkpt>
      <trkpt lat="46.29521" lon="6.25581">
        <ele>358.13</ele>
        <time>2020-04-15T11:49:59Z</time>
      </trkpt>
      <trkpt lat="46.29541" lon="6.25587">
        <ele>358.12</ele>
        <time>2020-04-15T11:50:06Z</time>
      </trkpt>
      <trkpt lat="46.29562" lon="6.25596">
        <ele>357.97</ele>
        <time>2020-04-15T11:50:13Z</time>
      </trkpt>
      <trkpt lat="46.29583" lon="6.25603">
        <ele>358.21</ele>
        <time>2020-04-15T11:50:22Z</time>
      </trkpt>
      <trkpt lat="46.29603" lon="6.25615">
        <ele>358.55</ele>
        <time>2020-04-15T11:50:29Z</time>
      </trkpt>
      <trkpt lat="46.29621" lon="6.25629">
        <ele>358.45</ele>
        <time>2020-04-15T11:50:37Z</time>
      </trkpt>
      <trkpt lat="46.29631" lon="6.25652">
        <ele>358.36</ele>
        <time>2020-04-15T11:50:44Z</time>
      </trkpt>
      <trkpt lat="46.29639" lon="6.25677">
        <ele>358.73</ele>
        <time>2020-04-15T11:51:05Z</time>
      </trkpt>
      <trkpt lat="46.29627" lon="6.25702">
        <ele>358.51</ele>
        <time>2020-04-15T11:51:14Z</time>
      </trkpt>
      <trkpt lat="46.29613" lon="6.25723">
        <ele>358.51</ele>
        <time>2020-04-15T11:51:22Z</time>
      </trkpt>
      <trkpt lat="46.29599" lon="6.25743">
        <ele>358.51</ele>
        <time>2020-04-15T11:51:30Z</time>
      </trkpt>
      <trkpt lat="46.29585" lon="6.25764">
        <ele>358.51</ele>
        <time>2020-04-15T11:51:37Z</time>
      </trkpt>
      <trkpt lat="46.29572" lon="6.25785">
        <ele>358.51</ele>
        <time>2020-04-15T11:51:44Z</time>
      </trkpt>
      <trkpt lat="46.2956" lon="6.25808">
        <ele>358.51</ele>
        <time>2020-04-15T11:51:51Z</time>
      </trkpt>
      <trkpt lat="46.2955" lon="6.25831">
        <ele>358.51</ele>
        <time>2020-04-15T11:51:58Z</time>
      </trkpt>
      <trkpt lat="46.2954" lon="6.25855">
        <ele>358.51</ele>
        <time>2020-04-15T11:52:05Z</time>
      </trkpt>
      <trkpt lat="46.29529" lon="6.2588">
        <ele>361.16</ele>
        <time>2020-04-15T11:52:13Z</time>
      </trkpt>
      <trkpt lat="46.29522" lon="6.25905">
        <ele>361.48</ele>
        <time>2020-04-15T11:52:20Z</time>
      </trkpt>
      <trkpt lat="46.29518" lon="6.25933">
        <ele>361.52</ele>
        <time>2020-04-15T11:52:29Z</time>
      </trkpt>
      <trkpt lat="46.29517" lon="6.25963">
        <ele>361.53</ele>
        <time>2020-04-15T11:52:37Z</time>
      </trkpt>
      <trkpt lat="46.29513" lon="6.25991">
        <ele>361.84</ele>
        <time>2020-04-15T11:52:45Z</time>
      </trkpt>
      <trkpt lat="46.29511" lon="6.26019">
        <ele>362.07</ele>
        <time>2020-04-15T11:52:52Z</time>
      </trkpt>
      <trkpt lat="46.29507" lon="6.26048">
        <ele>362.78</ele>
        <time>2020-04-15T11:52:58Z</time>
      </trkpt>
      <trkpt lat="46.29504" lon="6.26078">
        <ele>363.29</ele>
        <time>2020-04-15T11:53:05Z</time>
      </trkpt>
      <trkpt lat="46.29501" lon="6.26108">
        <ele>363.73</ele>
        <time>2020-04-15T11:53:12Z</time>
      </trkpt>
      <trkpt lat="46.29496" lon="6.26136">
        <ele>364.14</ele>
        <time>2020-04-15T11:53:18Z</time>
      </trkpt>
      <trkpt lat="46.2949" lon="6.26164">
        <ele>364.56</ele>
        <time>2020-04-15T11:53:27Z</time>
      </trkpt>
      <trkpt lat="46.29473" lon="6.26183">
        <ele>364.69</ele>
        <time>2020-04-15T11:53:35Z</time>
      </trkpt>
      <trkpt lat="46.29449" lon="6.26195">
        <ele>364.75</ele>
        <time>2020-04-15T11:53:46Z</time>
      </trkpt>
      <trkpt lat="46.29426" lon="6.26205">
        <ele>365.24</ele>
        <time>2020-04-15T11:53:54Z</time>
      </trkpt>
      <trkpt lat="46.29408" lon="6.26227">
        <ele>365.59</ele>
        <time>2020-04-15T11:54:03Z</time>
      </trkpt>
      <trkpt lat="46.29391" lon="6.26248">
        <ele>365.56</ele>
        <time>2020-04-15T11:54:10Z</time>
      </trkpt>
      <trkpt lat="46.29378" lon="6.26276">
        <ele>365.45</ele>
        <time>2020-04-15T11:54:19Z</time>
      </trkpt>
      <trkpt lat="46.29365" lon="6.2631">
        <ele>365.12</ele>
        <time>2020-04-15T11:54:30Z</time>
      </trkpt>
      <trkpt lat="46.29348" lon="6.26349">
        <ele>365.47</ele>
        <time>2020-04-15T11:56:18Z</time>
      </trkpt>
      <trkpt lat="46.29345" lon="6.26382">
        <ele>365.77</ele>
        <time>2020-04-15T11:56:28Z</time>
      </trkpt>
      <trkpt lat="46.29345" lon="6.26418">
        <ele>366.32</ele>
        <time>2020-04-15T11:56:36Z</time>
      </trkpt>
      <trkpt lat="46.29352" lon="6.26455">
        <ele>367.32</ele>
        <time>2020-04-15T11:56:49Z</time>
      </trkpt>
      <trkpt lat="46.29365" lon="6.2649">
        <ele>368.18</ele>
        <time>2020-04-15T11:57:04Z</time>
      </trkpt>
      <trkpt lat="46.29382" lon="6.26519">
        <ele>368.69</ele>
        <time>2020-04-15T11:57:18Z</time>
      </trkpt>
      <trkpt lat="46.29401" lon="6.26553">
        <ele>369.03</ele>
        <time>2020-04-15T11:57:33Z</time>
      </trkpt>
      <trkpt lat="46.29422" lon="6.26586">
        <ele>369.18</ele>
        <time>2020-04-15T11:58:39Z</time>
      </trkpt>
      <trkpt lat="46.2944" lon="6.26612">
        <ele>369.62</ele>
        <time>2020-04-15T11:58:51Z</time>
      </trkpt>
      <trkpt lat="46.2946" lon="6.26648">
        <ele>370</ele>
        <time>2020-04-15T11:59:24Z</time>
      </trkpt>
      <trkpt lat="46.29482" lon="6.26678">
        <ele>370</ele>
        <time>2020-04-15T11:59:42Z</time>
      </trkpt>
      <trkpt lat="46.29503" lon="6.26692">
        <ele>370</ele>
        <time>2020-04-15T11:59:56Z</time>
      </trkpt>
      <trkpt lat="46.29527" lon="6.26705">
        <ele>370</ele>
        <time>2020-04-15T12:00:07Z</time>
      </trkpt>
      <trkpt lat="46.29548" lon="6.26722">
        <ele>370</ele>
        <time>2020-04-15T12:00:17Z</time>
      </trkpt>
      <trkpt lat="46.29569" lon="6.26734">
        <ele>370</ele>
        <time>2020-04-15T12:00:27Z</time>
      </trkpt>
      <trkpt lat="46.29594" lon="6.26749">
        <ele>370</ele>
        <time>2020-04-15T12:00:40Z</time>
      </trkpt>
      <trkpt lat="46.29613" lon="6.26769">
        <ele>370</ele>
        <time>2020-04-15T12:00:56Z</time>
      </trkpt>
      <trkpt lat="46.29634" lon="6.26789">
        <ele>370</ele>
        <time>2020-04-15T12:01:07Z</time>
      </trkpt>
      <trkpt lat="46.29653" lon="6.26813">
        <ele>370</ele>
        <time>2020-04-15T12:01:23Z</time>
      </trkpt>
      <trkpt lat="46.29682" lon="6.26809">
        <ele>370</ele>
        <time>2020-04-15T12:01:49Z</time>
      </trkpt>
      <trkpt lat="46.29706" lon="6.26806">
        <ele>370</ele>
        <time>2020-04-15T12:01:57Z</time>
      </trkpt>
      <trkpt lat="46.29731" lon="6.26801">
        <ele>370</ele>
        <time>2020-04-15T12:02:07Z</time>
      </trkpt>
      <trkpt lat="46.29755" lon="6.26805">
        <ele>370</ele>
        <time>2020-04-15T12:02:24Z</time>
      </trkpt>
      <trkpt lat="46.29782" lon="6.26812">
        <ele>370</ele>
        <time>2020-04-15T12:02:43Z</time>
      </trkpt>
      <trkpt lat="46.29808" lon="6.26838">
        <ele>370</ele>
        <time>2020-04-15T12:03:40Z</time>
      </trkpt>
      <trkpt lat="46.29815" lon="6.2688">
        <ele>370</ele>
        <time>2020-04-15T12:04:18Z</time>
      </trkpt>
      <trkpt lat="46.29826" lon="6.26875">
        <ele>370</ele>
        <time>2020-04-15T12:04:48Z</time>
      </trkpt>
      <trkpt lat="46.29832" lon="6.26853">
        <ele>370</ele>
        <time>2020-04-15T12:05:10Z</time>
      </trkpt>
      <trkpt lat="46.29848" lon="6.26838">
        <ele>370</ele>
        <time>2020-04-15T12:05:21Z</time>
      </trkpt>
      <trkpt lat="46.2987" lon="6.2682">
        <ele>370</ele>
        <time>2020-04-15T12:05:44Z</time>
      </trkpt>
      <trkpt lat="46.2989" lon="6.268">
        <ele>370</ele>
        <time>2020-04-15T12:05:57Z</time>
      </trkpt>
      <trkpt lat="46.29911" lon="6.2678">
        <ele>370</ele>
        <time>2020-04-15T12:06:07Z</time>
      </trkpt>
      <trkpt lat="46.29937" lon="6.2676">
        <ele>370</ele>
        <time>2020-04-15T12:06:29Z</time>
      </trkpt>
      <trkpt lat="46.29953" lon="6.26741">
        <ele>370</ele>
        <time>2020-04-15T12:06:42Z</time>
      </trkpt>
      <trkpt lat="46.29975" lon="6.26716">
        <ele>370</ele>
        <time>2020-04-15T12:07:13Z</time>
      </trkpt>
      <trkpt lat="46.29998" lon="6.26681">
        <ele>370</ele>
        <time>2020-04-15T12:07:47Z</time>
      </trkpt>
      <trkpt lat="46.30012" lon="6.26685">
        <ele>370</ele>
        <time>2020-04-15T12:08:25Z</time>
      </trkpt>
      <trkpt lat="46.30025" lon="6.26653">
        <ele>370</ele>
        <time>2020-04-15T12:08:55Z</time>
      </trkpt>
      <trkpt lat="46.30042" lon="6.26618">
        <ele>370</ele>
        <time>2020-04-15T12:10:07Z</time>
      </trkpt>
      <trkpt lat="46.30067" lon="6.26611">
        <ele>370</ele>
        <time>2020-04-15T12:10:22Z</time>
      </trkpt>
      <trkpt lat="46.30093" lon="6.26596">
        <ele>370</ele>
        <time>2020-04-15T12:10:35Z</time>
      </trkpt>
      <trkpt lat="46.30118" lon="6.26585">
        <ele>370</ele>
        <time>2020-04-15T12:10:45Z</time>
      </trkpt>
      <trkpt lat="46.30148" lon="6.26577">
        <ele>370</ele>
        <time>2020-04-15T12:10:58Z</time>
      </trkpt>
      <trkpt lat="46.30176" lon="6.2658">
        <ele>370</ele>
        <time>2020-04-15T12:11:09Z</time>
      </trkpt>
      <trkpt lat="46.30204" lon="6.2659">
        <ele>370</ele>
        <time>2020-04-15T12:11:22Z</time>
      </trkpt>
      <trkpt lat="46.30232" lon="6.26594">
        <ele>370</ele>
        <time>2020-04-15T12:11:36Z</time>
      </trkpt>
      <trkpt lat="46.30253" lon="6.26578">
        <ele>370</ele>
        <time>2020-04-15T12:11:47Z</time>
      </trkpt>
      <trkpt lat="46.30275" lon="6.26556">
        <ele>370</ele>
        <time>2020-04-15T12:11:55Z</time>
      </trkpt>
      <trkpt lat="46.30294" lon="6.26534">
        <ele>370</ele>
        <time>2020-04-15T12:12:03Z</time>
      </trkpt>
      <trkpt lat="46.3031" lon="6.26517">
        <ele>370</ele>
        <time>2020-04-15T12:12:10Z</time>
      </trkpt>
      <trkpt lat="46.30324" lon="6.26499">
        <ele>370</ele>
        <time>2020-04-15T12:12:17Z</time>
      </trkpt>
      <trkpt lat="46.30339" lon="6.26483">
        <ele>370</ele>
        <time>2020-04-15T12:12:23Z</time>
      </trkpt>
      <trkpt lat="46.30352" lon="6.26466">
        <ele>370</ele>
        <time>2020-04-15T12:12:31Z</time>
      </trkpt>
      <trkpt lat="46.30365" lon="6.26447">
        <ele>370</ele>
        <time>2020-04-15T12:12:38Z</time>
      </trkpt>
      <trkpt lat="46.30379" lon="6.26427">
        <ele>370</ele>
        <time>2020-04-15T12:12:43Z</time>
      </trkpt>
      <trkpt lat="46.30392" lon="6.26408">
        <ele>370</ele>
        <time>2020-04-15T12:12:47Z</time>
      </trkpt>
      <trkpt lat="46.30405" lon="6.26387">
        <ele>370</ele>
        <time>2020-04-15T12:12:51Z</time>
      </trkpt>
      <trkpt lat="46.3042" lon="6.26364">
        <ele>370</ele>
        <time>2020-04-15T12:12:55Z</time>
      </trkpt>
      <trkpt lat="46.30437" lon="6.26344">
        <ele>370</ele>
        <time>2020-04-15T12:13:00Z</time>
      </trkpt>
      <trkpt lat="46.30456" lon="6.26329">
        <ele>370</ele>
        <time>2020-04-15T12:13:08Z</time>
      </trkpt>
      <trkpt lat="46.30472" lon="6.2631">
        <ele>370</ele>
        <time>2020-04-15T12:13:17Z</time>
      </trkpt>
      <trkpt lat="46.30488" lon="6.26293">
        <ele>370</ele>
        <time>2020-04-15T12:13:25Z</time>
      </trkpt>
      <trkpt lat="46.30502" lon="6.26274">
        <ele>370</ele>
        <time>2020-04-15T12:13:34Z</time>
      </trkpt>
      <trkpt lat="46.30516" lon="6.26257">
        <ele>370</ele>
        <time>2020-04-15T12:13:41Z</time>
      </trkpt>
      <trkpt lat="46.30531" lon="6.26235">
        <ele>370</ele>
        <time>2020-04-15T12:13:47Z</time>
      </trkpt>
      <trkpt lat="46.30544" lon="6.26215">
        <ele>370</ele>
        <time>2020-04-15T12:13:53Z</time>
      </trkpt>
      <trkpt lat="46.30557" lon="6.26196">
        <ele>370</ele>
        <time>2020-04-15T12:14:00Z</time>
      </trkpt>
      <trkpt lat="46.30572" lon="6.26175">
        <ele>370</ele>
        <time>2020-04-15T12:14:07Z</time>
      </trkpt>
      <trkpt lat="46.30587" lon="6.26152">
        <ele>370</ele>
        <time>2020-04-15T12:14:13Z</time>
      </trkpt>
      <trkpt lat="46.306" lon="6.26133">
        <ele>370</ele>
        <time>2020-04-15T12:14:18Z</time>
      </trkpt>
      <trkpt lat="46.30613" lon="6.26113">
        <ele>370</ele>
        <time>2020-04-15T12:14:25Z</time>
      </trkpt>
      <trkpt lat="46.30626" lon="6.26092">
        <ele>370</ele>
        <time>2020-04-15T12:14:32Z</time>
      </trkpt>
      <trkpt lat="46.30639" lon="6.26071">
        <ele>370</ele>
        <time>2020-04-15T12:14:39Z</time>
      </trkpt>
      <trkpt lat="46.30652" lon="6.26051">
        <ele>370</ele>
        <time>2020-04-15T12:14:47Z</time>
      </trkpt>
      <trkpt lat="46.3067" lon="6.26054">
        <ele>370</ele>
        <time>2020-04-15T12:14:54Z</time>
      </trkpt>
      <trkpt lat="46.30685" lon="6.2607">
        <ele>370</ele>
        <time>2020-04-15T12:15:00Z</time>
      </trkpt>
      <trkpt lat="46.30702" lon="6.2609">
        <ele>370</ele>
        <time>2020-04-15T12:15:06Z</time>
      </trkpt>
      <trkpt lat="46.30717" lon="6.26108">
        <ele>370</ele>
        <time>2020-04-15T12:15:13Z</time>
      </trkpt>
      <trkpt lat="46.30733" lon="6.26126">
        <ele>370</ele>
        <time>2020-04-15T12:15:20Z</time>
      </trkpt>
      <trkpt lat="46.30741" lon="6.26149">
        <ele>370</ele>
        <time>2020-04-15T12:15:30Z</time>
      </trkpt>
      <trkpt lat="46.30738" lon="6.26179">
        <ele>370</ele>
        <time>2020-04-15T12:15:36Z</time>
      </trkpt>
      <trkpt lat="46.30737" lon="6.26208">
        <ele>370</ele>
        <time>2020-04-15T12:15:41Z</time>
      </trkpt>
      <trkpt lat="46.30737" lon="6.26235">
        <ele>370</ele>
        <time>2020-04-15T12:15:46Z</time>
      </trkpt>
      <trkpt lat="46.30738" lon="6.26264">
        <ele>370</ele>
        <time>2020-04-15T12:15:51Z</time>
      </trkpt>
      <trkpt lat="46.30741" lon="6.26294">
        <ele>370</ele>
        <time>2020-04-15T12:15:56Z</time>
      </trkpt>
      <trkpt lat="46.30744" lon="6.26324">
        <ele>370</ele>
        <time>2020-04-15T12:16:01Z</time>
      </trkpt>
      <trkpt lat="46.30749" lon="6.26351">
        <ele>370</ele>
        <time>2020-04-15T12:16:06Z</time>
      </trkpt>
      <trkpt lat="46.30751" lon="6.26381">
        <ele>370</ele>
        <time>2020-04-15T12:16:13Z</time>
      </trkpt>
      <trkpt lat="46.30753" lon="6.26408">
        <ele>370</ele>
        <time>2020-04-15T12:16:18Z</time>
      </trkpt>
      <trkpt lat="46.3075" lon="6.2644">
        <ele>370</ele>
        <time>2020-04-15T12:16:23Z</time>
      </trkpt>
      <trkpt lat="46.30746" lon="6.26471">
        <ele>370</ele>
        <time>2020-04-15T12:16:28Z</time>
      </trkpt>
      <trkpt lat="46.30741" lon="6.26497">
        <ele>370</ele>
        <time>2020-04-15T12:16:33Z</time>
      </trkpt>
      <trkpt lat="46.30735" lon="6.26526">
        <ele>370</ele>
        <time>2020-04-15T12:16:38Z</time>
      </trkpt>
      <trkpt lat="46.3073" lon="6.26558">
        <ele>370</ele>
        <time>2020-04-15T12:16:43Z</time>
      </trkpt>
      <trkpt lat="46.30726" lon="6.26585">
        <ele>370</ele>
        <time>2020-04-15T12:16:47Z</time>
      </trkpt>
      <trkpt lat="46.30723" lon="6.26612">
        <ele>370</ele>
        <time>2020-04-15T12:16:51Z</time>
      </trkpt>
      <trkpt lat="46.30719" lon="6.2664">
        <ele>370</ele>
        <time>2020-04-15T12:16:55Z</time>
      </trkpt>
      <trkpt lat="46.30715" lon="6.26668">
        <ele>370</ele>
        <time>2020-04-15T12:16:59Z</time>
      </trkpt>
      <trkpt lat="46.30713" lon="6.26694">
        <ele>370</ele>
        <time>2020-04-15T12:17:16Z</time>
      </trkpt>
      <trkpt lat="46.30716" lon="6.26723">
        <ele>370</ele>
        <time>2020-04-15T12:17:22Z</time>
      </trkpt>
      <trkpt lat="46.30721" lon="6.26755">
        <ele>370</ele>
        <time>2020-04-15T12:17:27Z</time>
      </trkpt>
      <trkpt lat="46.3073" lon="6.2678">
        <ele>370</ele>
        <time>2020-04-15T12:17:31Z</time>
      </trkpt>
      <trkpt lat="46.30734" lon="6.26808">
        <ele>370</ele>
        <time>2020-04-15T12:17:36Z</time>
      </trkpt>
      <trkpt lat="46.30733" lon="6.26839">
        <ele>370</ele>
        <time>2020-04-15T12:17:42Z</time>
      </trkpt>
      <trkpt lat="46.30728" lon="6.26867">
        <ele>370</ele>
        <time>2020-04-15T12:17:47Z</time>
      </trkpt>
      <trkpt lat="46.30723" lon="6.26896">
        <ele>370</ele>
        <time>2020-04-15T12:17:52Z</time>
      </trkpt>
      <trkpt lat="46.30717" lon="6.26925">
        <ele>370</ele>
        <time>2020-04-15T12:17:57Z</time>
      </trkpt>
      <trkpt lat="46.30711" lon="6.2695">
        <ele>370</ele>
        <time>2020-04-15T12:18:02Z</time>
      </trkpt>
      <trkpt lat="46.30705" lon="6.26978">
        <ele>370</ele>
        <time>2020-04-15T12:18:09Z</time>
      </trkpt>
      <trkpt lat="46.307" lon="6.27005">
        <ele>370</ele>
        <time>2020-04-15T12:18:15Z</time>
      </trkpt>
      <trkpt lat="46.30693" lon="6.27033">
        <ele>370</ele>
        <time>2020-04-15T12:18:21Z</time>
      </trkpt>
      <trkpt lat="46.30686" lon="6.27061">
        <ele>370</ele>
        <time>2020-04-15T12:18:27Z</time>
      </trkpt>
      <trkpt lat="46.3068" lon="6.27086">
        <ele>370</ele>
        <time>2020-04-15T12:18:32Z</time>
      </trkpt>
      <trkpt lat="46.30674" lon="6.27115">
        <ele>370</ele>
        <time>2020-04-15T12:18:37Z</time>
      </trkpt>
      <trkpt lat="46.30667" lon="6.27143">
        <ele>374.6</ele>
        <time>2020-04-15T12:18:43Z</time>
      </trkpt>
      <trkpt lat="46.30665" lon="6.27168">
        <ele>374.65</ele>
        <time>2020-04-15T12:18:54Z</time>
      </trkpt>
      <trkpt lat="46.3065" lon="6.27181">
        <ele>374.81</ele>
        <time>2020-04-15T12:19:01Z</time>
      </trkpt>
      <trkpt lat="46.3063" lon="6.27176">
        <ele>374.74</ele>
        <time>2020-04-15T12:19:06Z</time>
      </trkpt>
      <trkpt lat="46.30613" lon="6.27168">
        <ele>374.66</ele>
        <time>2020-04-15T12:19:10Z</time>
      </trkpt>
      <trkpt lat="46.30596" lon="6.2716">
        <ele>374.62</ele>
        <time>2020-04-15T12:19:14Z</time>
      </trkpt>
      <trkpt lat="46.30575" lon="6.27149">
        <ele>374.37</ele>
        <time>2020-04-15T12:19:19Z</time>
      </trkpt>
      <trkpt lat="46.30558" lon="6.27142">
        <ele>374.25</ele>
        <time>2020-04-15T12:19:24Z</time>
      </trkpt>
      <trkpt lat="46.30535" lon="6.27136">
        <ele>374.31</ele>
        <time>2020-04-15T12:19:30Z</time>
      </trkpt>
      <trkpt lat="46.30517" lon="6.27129">
        <ele>374.17</ele>
        <time>2020-04-15T12:19:35Z</time>
      </trkpt>
      <trkpt lat="46.30497" lon="6.27117">
        <ele>374.03</ele>
        <time>2020-04-15T12:19:41Z</time>
      </trkpt>
      <trkpt lat="46.3048" lon="6.27103">
        <ele>373.98</ele>
        <time>2020-04-15T12:19:47Z</time>
      </trkpt>
      <trkpt lat="46.30462" lon="6.2709">
        <ele>374.1</ele>
        <time>2020-04-15T12:19:52Z</time>
      </trkpt>
      <trkpt lat="46.30442" lon="6.27084">
        <ele>374.33</ele>
        <time>2020-04-15T12:19:57Z</time>
      </trkpt>
      <trkpt lat="46.30422" lon="6.27087">
        <ele>374.5</ele>
        <time>2020-04-15T12:20:02Z</time>
      </trkpt>
      <trkpt lat="46.30404" lon="6.27096">
        <ele>374.67</ele>
        <time>2020-04-15T12:20:07Z</time>
      </trkpt>
      <trkpt lat="46.30385" lon="6.27111">
        <ele>375.09</ele>
        <time>2020-04-15T12:20:13Z</time>
      </trkpt>
      <trkpt lat="46.30367" lon="6.27128">
        <ele>375.54</ele>
        <time>2020-04-15T12:20:19Z</time>
      </trkpt>
      <trkpt lat="46.3035" lon="6.27148">
        <ele>376.12</ele>
        <time>2020-04-15T12:20:25Z</time>
      </trkpt>
      <trkpt lat="46.30336" lon="6.27167">
        <ele>376.52</ele>
        <time>2020-04-15T12:20:30Z</time>
      </trkpt>
      <trkpt lat="46.3032" lon="6.27188">
        <ele>376.83</ele>
        <time>2020-04-15T12:20:37Z</time>
      </trkpt>
      <trkpt lat="46.30305" lon="6.27206">
        <ele>377.21</ele>
        <time>2020-04-15T12:20:43Z</time>
      </trkpt>
      <trkpt lat="46.30289" lon="6.27225">
        <ele>377.37</ele>
        <time>2020-04-15T12:20:49Z</time>
      </trkpt>
      <trkpt lat="46.30275" lon="6.27242">
        <ele>377.57</ele>
        <time>2020-04-15T12:20:54Z</time>
      </trkpt>
      <trkpt lat="46.30261" lon="6.27259">
        <ele>377.74</ele>
        <time>2020-04-15T12:20:59Z</time>
      </trkpt>
      <trkpt lat="46.30243" lon="6.27278">
        <ele>378.11</ele>
        <time>2020-04-15T12:21:05Z</time>
      </trkpt>
      <trkpt lat="46.30226" lon="6.27295">
        <ele>378.45</ele>
        <time>2020-04-15T12:21:11Z</time>
      </trkpt>
      <trkpt lat="46.3021" lon="6.27312">
        <ele>378.72</ele>
        <time>2020-04-15T12:21:17Z</time>
      </trkpt>
      <trkpt lat="46.30195" lon="6.27334">
        <ele>378.85</ele>
        <time>2020-04-15T12:21:23Z</time>
      </trkpt>
      <trkpt lat="46.30182" lon="6.27359">
        <ele>379.32</ele>
        <time>2020-04-15T12:21:32Z</time>
      </trkpt>
      <trkpt lat="46.3017" lon="6.27392">
        <ele>379.52</ele>
        <time>2020-04-15T12:21:40Z</time>
      </trkpt>
      <trkpt lat="46.30157" lon="6.27419">
        <ele>379.73</ele>
        <time>2020-04-15T12:21:46Z</time>
      </trkpt>
      <trkpt lat="46.30146" lon="6.27446">
        <ele>380.29</ele>
        <time>2020-04-15T12:21:53Z</time>
      </trkpt>
      <trkpt lat="46.30137" lon="6.27474">
        <ele>380.57</ele>
        <time>2020-04-15T12:21:59Z</time>
      </trkpt>
      <trkpt lat="46.3013" lon="6.275">
        <ele>380.76</ele>
        <time>2020-04-15T12:22:04Z</time>
      </trkpt>
      <trkpt lat="46.30122" lon="6.27529">
        <ele>380.82</ele>
        <time>2020-04-15T12:22:09Z</time>
      </trkpt>
      <trkpt lat="46.30116" lon="6.27554">
        <ele>380.84</ele>
        <time>2020-04-15T12:22:14Z</time>
      </trkpt>
      <trkpt lat="46.30111" lon="6.27583">
        <ele>380.87</ele>
        <time>2020-04-15T12:22:20Z</time>
      </trkpt>
      <trkpt lat="46.30108" lon="6.2761">
        <ele>380.97</ele>
        <time>2020-04-15T12:22:25Z</time>
      </trkpt>
      <trkpt lat="46.30103" lon="6.27637">
        <ele>380.85</ele>
        <time>2020-04-15T12:22:31Z</time>
      </trkpt>
      <trkpt lat="46.30094" lon="6.27665">
        <ele>380.72</ele>
        <time>2020-04-15T12:22:37Z</time>
      </trkpt>
      <trkpt lat="46.30086" lon="6.2769">
        <ele>380.75</ele>
        <time>2020-04-15T12:22:42Z</time>
      </trkpt>
      <trkpt lat="46.30077" lon="6.27714">
        <ele>380.87</ele>
        <time>2020-04-15T12:22:47Z</time>
      </trkpt>
      <trkpt lat="46.30069" lon="6.27739">
        <ele>381.14</ele>
        <time>2020-04-15T12:22:52Z</time>
      </trkpt>
      <trkpt lat="46.30062" lon="6.27763">
        <ele>381.44</ele>
        <time>2020-04-15T12:22:57Z</time>
      </trkpt>
      <trkpt lat="46.30061" lon="6.27791">
        <ele>382.13</ele>
        <time>2020-04-15T12:23:03Z</time>
      </trkpt>
      <trkpt lat="46.30069" lon="6.27817">
        <ele>382.77</ele>
        <time>2020-04-15T12:23:09Z</time>
      </trkpt>
      <trkpt lat="46.30086" lon="6.27837">
        <ele>383.03</ele>
        <time>2020-04-15T12:23:15Z</time>
      </trkpt>
      <trkpt lat="46.30102" lon="6.27855">
        <ele>383.3</ele>
        <time>2020-04-15T12:23:20Z</time>
      </trkpt>
      <trkpt lat="46.30119" lon="6.27873">
        <ele>383.57</ele>
        <time>2020-04-15T12:23:25Z</time>
      </trkpt>
      <trkpt lat="46.30131" lon="6.27893">
        <ele>383.73</ele>
        <time>2020-04-15T12:23:30Z</time>
      </trkpt>
      <trkpt lat="46.30144" lon="6.27918">
        <ele>384.03</ele>
        <time>2020-04-15T12:23:36Z</time>
      </trkpt>
      <trkpt lat="46.30151" lon="6.27943">
        <ele>384.42</ele>
        <time>2020-04-15T12:23:42Z</time>
      </trkpt>
      <trkpt lat="46.30159" lon="6.27967">
        <ele>384.86</ele>
        <time>2020-04-15T12:23:48Z</time>
      </trkpt>
      <trkpt lat="46.30166" lon="6.27993">
        <ele>385.17</ele>
        <time>2020-04-15T12:23:54Z</time>
      </trkpt>
      <trkpt lat="46.30173" lon="6.2802">
        <ele>385.46</ele>
        <time>2020-04-15T12:24:01Z</time>
      </trkpt>
      <trkpt lat="46.3018" lon="6.28048">
        <ele>385.46</ele>
        <time>2020-04-15T12:24:07Z</time>
      </trkpt>
      <trkpt lat="46.30177" lon="6.28074">
        <ele>385.48</ele>
        <time>2020-04-15T12:24:13Z</time>
      </trkpt>
      <trkpt lat="46.30166" lon="6.281">
        <ele>385.51</ele>
        <time>2020-04-15T12:24:18Z</time>
      </trkpt>
      <trkpt lat="46.30156" lon="6.28125">
        <ele>385.22</ele>
        <time>2020-04-15T12:24:22Z</time>
      </trkpt>
      <trkpt lat="46.30145" lon="6.2815">
        <ele>384.65</ele>
        <time>2020-04-15T12:24:26Z</time>
      </trkpt>
      <trkpt lat="46.30133" lon="6.28178">
        <ele>383.81</ele>
        <time>2020-04-15T12:24:30Z</time>
      </trkpt>
      <trkpt lat="46.3012" lon="6.28207">
        <ele>382.81</ele>
        <time>2020-04-15T12:24:34Z</time>
      </trkpt>
      <trkpt lat="46.30108" lon="6.28237">
        <ele>381.85</ele>
        <time>2020-04-15T12:24:38Z</time>
      </trkpt>
      <trkpt lat="46.30096" lon="6.28264">
        <ele>380.97</ele>
        <time>2020-04-15T12:24:42Z</time>
      </trkpt>
      <trkpt lat="46.30086" lon="6.28288">
        <ele>380.22</ele>
        <time>2020-04-15T12:24:46Z</time>
      </trkpt>
      <trkpt lat="46.30074" lon="6.28314">
        <ele>379.71</ele>
        <time>2020-04-15T12:24:51Z</time>
      </trkpt>
      <trkpt lat="46.30063" lon="6.2834">
        <ele>379.57</ele>
        <time>2020-04-15T12:24:57Z</time>
      </trkpt>
      <trkpt lat="46.30053" lon="6.28364">
        <ele>379.62</ele>
        <time>2020-04-15T12:25:03Z</time>
      </trkpt>
      <trkpt lat="46.30038" lon="6.28378">
        <ele>379.7</ele>
        <time>2020-04-15T12:25:10Z</time>
      </trkpt>
      <trkpt lat="46.30027" lon="6.28398">
        <ele>380.08</ele>
        <time>2020-04-15T12:25:17Z</time>
      </trkpt>
      <trkpt lat="46.3004" lon="6.28416">
        <ele>379.96</ele>
        <time>2020-04-15T12:25:24Z</time>
      </trkpt>
      <trkpt lat="46.30052" lon="6.28436">
        <ele>380.08</ele>
        <time>2020-04-15T12:25:30Z</time>
      </trkpt>
      <trkpt lat="46.3006" lon="6.28462">
        <ele>380.05</ele>
        <time>2020-04-15T12:25:35Z</time>
      </trkpt>
      <trkpt lat="46.30065" lon="6.28487">
        <ele>380.02</ele>
        <time>2020-04-15T12:25:40Z</time>
      </trkpt>
      <trkpt lat="46.30073" lon="6.28513">
        <ele>380.18</ele>
        <time>2020-04-15T12:25:47Z</time>
      </trkpt>
      <trkpt lat="46.30082" lon="6.28535">
        <ele>380.18</ele>
        <time>2020-04-15T12:25:56Z</time>
      </trkpt>
      <trkpt lat="46.30091" lon="6.28566">
        <ele>380.18</ele>
        <time>2020-04-15T12:27:12Z</time>
      </trkpt>
      <trkpt lat="46.30098" lon="6.28592">
        <ele>380.18</ele>
        <time>2020-04-15T12:27:21Z</time>
      </trkpt>
      <trkpt lat="46.30104" lon="6.28621">
        <ele>380.18</ele>
        <time>2020-04-15T12:27:28Z</time>
      </trkpt>
      <trkpt lat="46.3011" lon="6.28646">
        <ele>380.18</ele>
        <time>2020-04-15T12:27:34Z</time>
      </trkpt>
      <trkpt lat="46.30116" lon="6.28673">
        <ele>380.18</ele>
        <time>2020-04-15T12:27:41Z</time>
      </trkpt>
      <trkpt lat="46.30123" lon="6.287">
        <ele>380.18</ele>
        <time>2020-04-15T12:27:47Z</time>
      </trkpt>
      <trkpt lat="46.30128" lon="6.28725">
        <ele>380.18</ele>
        <time>2020-04-15T12:27:54Z</time>
      </trkpt>
      <trkpt lat="46.30115" lon="6.2874">
        <ele>380.18</ele>
        <time>2020-04-15T12:28:03Z</time>
      </trkpt>
      <trkpt lat="46.30095" lon="6.28749">
        <ele>380.18</ele>
        <time>2020-04-15T12:28:11Z</time>
      </trkpt>
      <trkpt lat="46.30076" lon="6.28755">
        <ele>380.18</ele>
        <time>2020-04-15T12:28:18Z</time>
      </trkpt>
      <trkpt lat="46.30057" lon="6.28766">
        <ele>380.18</ele>
        <time>2020-04-15T12:28:27Z</time>
      </trkpt>
      <trkpt lat="46.30038" lon="6.28775">
        <ele>380.18</ele>
        <time>2020-04-15T12:28:34Z</time>
      </trkpt>
      <trkpt lat="46.30021" lon="6.28783">
        <ele>380.18</ele>
        <time>2020-04-15T12:28:40Z</time>
      </trkpt>
      <trkpt lat="46.30004" lon="6.28789">
        <ele>380.18</ele>
        <time>2020-04-15T12:28:49Z</time>
      </trkpt>
      <trkpt lat="46.29991" lon="6.28798">
        <ele>380.18</ele>
        <time>2020-04-15T12:48:40Z</time>
      </trkpt>
      <trkpt lat="46.29972" lon="6.28804">
        <ele>380.18</ele>
        <time>2020-04-15T12:48:50Z</time>
      </trkpt>
      <trkpt lat="46.2995" lon="6.28802">
        <ele>380.18</ele>
        <time>2020-04-15T12:48:57Z</time>
      </trkpt>
      <trkpt lat="46.29929" lon="6.28792">
        <ele>380.18</ele>
        <time>2020-04-15T12:49:03Z</time>
      </trkpt>
      <trkpt lat="46.29914" lon="6.28778">
        <ele>380.18</ele>
        <time>2020-04-15T12:49:08Z</time>
      </trkpt>
      <trkpt lat="46.299" lon="6.28759">
        <ele>380.18</ele>
        <time>2020-04-15T12:49:14Z</time>
      </trkpt>
      <trkpt lat="46.29889" lon="6.28734">
        <ele>380.18</ele>
        <time>2020-04-15T12:49:20Z</time>
      </trkpt>
      <trkpt lat="46.2988" lon="6.2871">
        <ele>380.18</ele>
        <time>2020-04-15T12:49:26Z</time>
      </trkpt>
      <trkpt lat="46.29871" lon="6.28685">
        <ele>380.18</ele>
        <time>2020-04-15T12:49:33Z</time>
      </trkpt>
      <trkpt lat="46.29855" lon="6.28682">
        <ele>380.18</ele>
        <time>2020-04-15T12:49:51Z</time>
      </trkpt>
      <trkpt lat="46.29837" lon="6.28683">
        <ele>380.18</ele>
        <time>2020-04-15T12:49:57Z</time>
      </trkpt>
      <trkpt lat="46.29816" lon="6.28684">
        <ele>380.18</ele>
        <time>2020-04-15T12:50:03Z</time>
      </trkpt>
      <trkpt lat="46.29795" lon="6.28688">
        <ele>385.83</ele>
        <time>2020-04-15T12:50:09Z</time>
      </trkpt>
      <trkpt lat="46.29775" lon="6.28692">
        <ele>383.08</ele>
        <time>2020-04-15T12:50:15Z</time>
      </trkpt>
      <trkpt lat="46.29755" lon="6.28697">
        <ele>383.2</ele>
        <time>2020-04-15T12:50:21Z</time>
      </trkpt>
      <trkpt lat="46.29737" lon="6.28705">
        <ele>383.59</ele>
        <time>2020-04-15T12:50:28Z</time>
      </trkpt>
      <trkpt lat="46.29719" lon="6.28719">
        <ele>383.83</ele>
        <time>2020-04-15T12:50:35Z</time>
      </trkpt>
      <trkpt lat="46.2968" lon="6.2877">
        <ele>434.565002</ele>
        <time>2020-04-15T12:53:23Z</time>
      </trkpt>
      <trkpt lat="46.29705" lon="6.28837">
        <ele>385.96</ele>
        <time>2020-04-15T12:53:28Z</time>
      </trkpt>
      <trkpt lat="46.29708" lon="6.28865">
        <ele>385.86</ele>
        <time>2020-04-15T12:53:33Z</time>
      </trkpt>
      <trkpt lat="46.29711" lon="6.28891">
        <ele>385.75</ele>
        <time>2020-04-15T12:53:38Z</time>
      </trkpt>
      <trkpt lat="46.29714" lon="6.28916">
        <ele>385.83</ele>
        <time>2020-04-15T12:53:45Z</time>
      </trkpt>
      <trkpt lat="46.29717" lon="6.28942">
        <ele>386.07</ele>
        <time>2020-04-15T12:53:52Z</time>
      </trkpt>
      <trkpt lat="46.29719" lon="6.28972">
        <ele>386.48</ele>
        <time>2020-04-15T12:53:59Z</time>
      </trkpt>
      <trkpt lat="46.29714" lon="6.29">
        <ele>386.71</ele>
        <time>2020-04-15T12:54:05Z</time>
      </trkpt>
      <trkpt lat="46.29709" lon="6.29028">
        <ele>386.92</ele>
        <time>2020-04-15T12:54:12Z</time>
      </trkpt>
      <trkpt lat="46.29705" lon="6.29056">
        <ele>387.25</ele>
        <time>2020-04-15T12:54:19Z</time>
      </trkpt>
      <trkpt lat="46.29699" lon="6.29081">
        <ele>387.55</ele>
        <time>2020-04-15T12:54:26Z</time>
      </trkpt>
      <trkpt lat="46.29693" lon="6.29106">
        <ele>387.94</ele>
        <time>2020-04-15T12:54:34Z</time>
      </trkpt>
      <trkpt lat="46.29688" lon="6.29131">
        <ele>388.1</ele>
        <time>2020-04-15T12:54:42Z</time>
      </trkpt>
      <trkpt lat="46.29683" lon="6.29156">
        <ele>388.64</ele>
        <time>2020-04-15T12:54:51Z</time>
      </trkpt>
      <trkpt lat="46.29675" lon="6.29181">
        <ele>389.1</ele>
        <time>2020-04-15T12:55:00Z</time>
      </trkpt>
      <trkpt lat="46.29668" lon="6.29206">
        <ele>389.52</ele>
        <time>2020-04-15T12:55:07Z</time>
      </trkpt>
      <trkpt lat="46.29661" lon="6.2923">
        <ele>389.84</ele>
        <time>2020-04-15T12:55:16Z</time>
      </trkpt>
      <trkpt lat="46.29656" lon="6.29255">
        <ele>389.73</ele>
        <time>2020-04-15T12:55:25Z</time>
      </trkpt>
      <trkpt lat="46.29644" lon="6.29279">
        <ele>389.87</ele>
        <time>2020-04-15T12:55:34Z</time>
      </trkpt>
      <trkpt lat="46.29632" lon="6.2931">
        <ele>390.07</ele>
        <time>2020-04-15T12:55:44Z</time>
      </trkpt>
      <trkpt lat="46.2962" lon="6.29344">
        <ele>390.26</ele>
        <time>2020-04-15T12:55:55Z</time>
      </trkpt>
      <trkpt lat="46.29604" lon="6.29383">
        <ele>390.25</ele>
        <time>2020-04-15T12:56:04Z</time>
      </trkpt>
      <trkpt lat="46.29591" lon="6.2942">
        <ele>390.78</ele>
        <time>2020-04-15T12:56:13Z</time>
      </trkpt>
      <trkpt lat="46.29581" lon="6.29452">
        <ele>390.75</ele>
        <time>2020-04-15T12:56:22Z</time>
      </trkpt>
      <trkpt lat="46.29575" lon="6.29485">
        <ele>390.34</ele>
        <time>2020-04-15T12:56:30Z</time>
      </trkpt>
      <trkpt lat="46.29572" lon="6.29522">
        <ele>390.31</ele>
        <time>2020-04-15T12:56:38Z</time>
      </trkpt>
      <trkpt lat="46.29576" lon="6.29562">
        <ele>390.46</ele>
        <time>2020-04-15T12:56:51Z</time>
      </trkpt>
      <trkpt lat="46.29608" lon="6.29596">
        <ele>389.74</ele>
        <time>2020-04-15T12:57:18Z</time>
      </trkpt>
      <trkpt lat="46.2963" lon="6.29609">
        <ele>389.64</ele>
        <time>2020-04-15T12:57:26Z</time>
      </trkpt>
      <trkpt lat="46.29654" lon="6.29632">
        <ele>389.16</ele>
        <time>2020-04-15T12:57:35Z</time>
      </trkpt>
      <trkpt lat="46.29676" lon="6.29645">
        <ele>389.2</ele>
        <time>2020-04-15T12:57:46Z</time>
      </trkpt>
      <trkpt lat="46.29698" lon="6.29655">
        <ele>388.94</ele>
        <time>2020-04-15T12:57:56Z</time>
      </trkpt>
      <trkpt lat="46.29724" lon="6.29676">
        <ele>388.57</ele>
        <time>2020-04-15T12:58:05Z</time>
      </trkpt>
      <trkpt lat="46.29754" lon="6.29698">
        <ele>388.26</ele>
        <time>2020-04-15T12:58:18Z</time>
      </trkpt>
      <trkpt lat="46.29782" lon="6.29716">
        <ele>387.02</ele>
        <time>2020-04-15T12:58:26Z</time>
      </trkpt>
      <trkpt lat="46.29815" lon="6.29742">
        <ele>385.2</ele>
        <time>2020-04-15T12:58:34Z</time>
      </trkpt>
      <trkpt lat="46.29847" lon="6.29761">
        <ele>384.66</ele>
        <time>2020-04-15T12:58:41Z</time>
      </trkpt>
      <trkpt lat="46.29876" lon="6.29771">
        <ele>383.65</ele>
        <time>2020-04-15T12:58:49Z</time>
      </trkpt>
      <trkpt lat="46.29904" lon="6.29789">
        <ele>383.2</ele>
        <time>2020-04-15T13:00:01Z</time>
      </trkpt>
      <trkpt lat="46.29883" lon="6.29783">
        <ele>382.76</ele>
        <time>2020-04-15T13:00:11Z</time>
      </trkpt>
      <trkpt lat="46.29862" lon="6.29788">
        <ele>383.2</ele>
        <time>2020-04-15T13:00:24Z</time>
      </trkpt>
      <trkpt lat="46.29877" lon="6.29777">
        <ele>383.2</ele>
        <time>2020-04-15T13:00:58Z</time>
      </trkpt>
      <trkpt lat="46.29898" lon="6.29771">
        <ele>383.2</ele>
        <time>2020-04-15T13:01:11Z</time>
      </trkpt>
      <trkpt lat="46.29912" lon="6.2975">
        <ele>383.2</ele>
        <time>2020-04-15T13:01:19Z</time>
      </trkpt>
      <trkpt lat="46.29919" lon="6.29722">
        <ele>383.2</ele>
        <time>2020-04-15T13:01:24Z</time>
      </trkpt>
      <trkpt lat="46.29925" lon="6.29695">
        <ele>383.2</ele>
        <time>2020-04-15T13:01:30Z</time>
      </trkpt>
      <trkpt lat="46.29931" lon="6.29662">
        <ele>383.2</ele>
        <time>2020-04-15T13:01:38Z</time>
      </trkpt>
      <trkpt lat="46.29937" lon="6.29634">
        <ele>383.2</ele>
        <time>2020-04-15T13:01:44Z</time>
      </trkpt>
      <trkpt lat="46.29938" lon="6.29603">
        <ele>383.2</ele>
        <time>2020-04-15T13:02:00Z</time>
      </trkpt>
      <trkpt lat="46.29941" lon="6.29575">
        <ele>383.2</ele>
        <time>2020-04-15T13:02:09Z</time>
      </trkpt>
      <trkpt lat="46.29941" lon="6.29549">
        <ele>383.2</ele>
        <time>2020-04-15T13:02:17Z</time>
      </trkpt>
      <trkpt lat="46.29946" lon="6.29519">
        <ele>383.2</ele>
        <time>2020-04-15T13:02:37Z</time>
      </trkpt>
      <trkpt lat="46.29946" lon="6.29487">
        <ele>383.2</ele>
        <time>2020-04-15T13:02:49Z</time>
      </trkpt>
      <trkpt lat="46.29935" lon="6.29437">
        <ele>383.2</ele>
        <time>2020-04-15T13:03:42Z</time>
      </trkpt>
      <trkpt lat="46.29932" lon="6.294">
        <ele>383.2</ele>
        <time>2020-04-15T13:04:11Z</time>
      </trkpt>
      <trkpt lat="46.29944" lon="6.29367">
        <ele>383.2</ele>
        <time>2020-04-15T13:04:32Z</time>
      </trkpt>
      <trkpt lat="46.29953" lon="6.29333">
        <ele>383.2</ele>
        <time>2020-04-15T13:05:02Z</time>
      </trkpt>
      <trkpt lat="46.29966" lon="6.2931">
        <ele>383.2</ele>
        <time>2020-04-15T13:05:23Z</time>
      </trkpt>
      <trkpt lat="46.29974" lon="6.29285">
        <ele>383.2</ele>
        <time>2020-04-15T13:05:46Z</time>
      </trkpt>
      <trkpt lat="46.29985" lon="6.2926">
        <ele>383.2</ele>
        <time>2020-04-15T13:06:03Z</time>
      </trkpt>
      <trkpt lat="46.29993" lon="6.29233">
        <ele>383.2</ele>
        <time>2020-04-15T13:06:18Z</time>
      </trkpt>
      <trkpt lat="46.30006" lon="6.29215">
        <ele>383.2</ele>
        <time>2020-04-15T13:06:36Z</time>
      </trkpt>
      <trkpt lat="46.30027" lon="6.29219">
        <ele>383.2</ele>
        <time>2020-04-15T13:06:51Z</time>
      </trkpt>
      <trkpt lat="46.30046" lon="6.29219">
        <ele>383.2</ele>
        <time>2020-04-15T13:06:56Z</time>
      </trkpt>
      <trkpt lat="46.30067" lon="6.29223">
        <ele>383.2</ele>
        <time>2020-04-15T13:07:03Z</time>
      </trkpt>
      <trkpt lat="46.30088" lon="6.29228">
        <ele>383.2</ele>
        <time>2020-04-15T13:07:10Z</time>
      </trkpt>
      <trkpt lat="46.30107" lon="6.29234">
        <ele>383.2</ele>
        <time>2020-04-15T13:07:16Z</time>
      </trkpt>
      <trkpt lat="46.30126" lon="6.29241">
        <ele>383.2</ele>
        <time>2020-04-15T13:07:23Z</time>
      </trkpt>
      <trkpt lat="46.30145" lon="6.29249">
        <ele>383.2</ele>
        <time>2020-04-15T13:07:29Z</time>
      </trkpt>
      <trkpt lat="46.30165" lon="6.29258">
        <ele>383.2</ele>
        <time>2020-04-15T13:07:35Z</time>
      </trkpt>
      <trkpt lat="46.30182" lon="6.29266">
        <ele>383.2</ele>
        <time>2020-04-15T13:07:41Z</time>
      </trkpt>
      <trkpt lat="46.30203" lon="6.29275">
        <ele>383.2</ele>
        <time>2020-04-15T13:07:47Z</time>
      </trkpt>
      <trkpt lat="46.3022" lon="6.29283">
        <ele>383.2</ele>
        <time>2020-04-15T13:07:53Z</time>
      </trkpt>
      <trkpt lat="46.30238" lon="6.29289">
        <ele>383.2</ele>
        <time>2020-04-15T13:07:59Z</time>
      </trkpt>
      <trkpt lat="46.30257" lon="6.29294">
        <ele>383.2</ele>
        <time>2020-04-15T13:08:05Z</time>
      </trkpt>
      <trkpt lat="46.30275" lon="6.29296">
        <ele>383.2</ele>
        <time>2020-04-15T13:08:11Z</time>
      </trkpt>
      <trkpt lat="46.30291" lon="6.29304">
        <ele>383.2</ele>
        <time>2020-04-15T13:08:18Z</time>
      </trkpt>
      <trkpt lat="46.30295" lon="6.29332">
        <ele>383.2</ele>
        <time>2020-04-15T13:08:25Z</time>
      </trkpt>
      <trkpt lat="46.303" lon="6.29361">
        <ele>383.2</ele>
        <time>2020-04-15T13:08:31Z</time>
      </trkpt>
      <trkpt lat="46.30301" lon="6.29389">
        <ele>383.2</ele>
        <time>2020-04-15T13:08:37Z</time>
      </trkpt>
      <trkpt lat="46.30315" lon="6.29406">
        <ele>383.2</ele>
        <time>2020-04-15T13:08:43Z</time>
      </trkpt>
      <trkpt lat="46.30328" lon="6.29427">
        <ele>383.2</ele>
        <time>2020-04-15T13:08:49Z</time>
      </trkpt>
      <trkpt lat="46.30338" lon="6.29454">
        <ele>383.2</ele>
        <time>2020-04-15T13:08:55Z</time>
      </trkpt>
      <trkpt lat="46.30346" lon="6.2948">
        <ele>383.2</ele>
        <time>2020-04-15T13:09:00Z</time>
      </trkpt>
      <trkpt lat="46.30354" lon="6.29505">
        <ele>383.2</ele>
        <time>2020-04-15T13:09:05Z</time>
      </trkpt>
      <trkpt lat="46.30361" lon="6.29531">
        <ele>383.2</ele>
        <time>2020-04-15T13:09:11Z</time>
      </trkpt>
      <trkpt lat="46.30369" lon="6.29559">
        <ele>383.2</ele>
        <time>2020-04-15T13:09:17Z</time>
      </trkpt>
      <trkpt lat="46.30375" lon="6.29585">
        <ele>383.2</ele>
        <time>2020-04-15T13:09:24Z</time>
      </trkpt>
      <trkpt lat="46.30384" lon="6.29614">
        <ele>383.2</ele>
        <time>2020-04-15T13:09:31Z</time>
      </trkpt>
      <trkpt lat="46.30392" lon="6.29639">
        <ele>383.2</ele>
        <time>2020-04-15T13:09:37Z</time>
      </trkpt>
      <trkpt lat="46.304" lon="6.29666">
        <ele>383.2</ele>
        <time>2020-04-15T13:09:42Z</time>
      </trkpt>
      <trkpt lat="46.30408" lon="6.29693">
        <ele>383.2</ele>
        <time>2020-04-15T13:09:47Z</time>
      </trkpt>
      <trkpt lat="46.30417" lon="6.2972">
        <ele>383.2</ele>
        <time>2020-04-15T13:09:53Z</time>
      </trkpt>
      <trkpt lat="46.30426" lon="6.29749">
        <ele>383.2</ele>
        <time>2020-04-15T13:09:59Z</time>
      </trkpt>
      <trkpt lat="46.30434" lon="6.29775">
        <ele>383.2</ele>
        <time>2020-04-15T13:10:04Z</time>
      </trkpt>
      <trkpt lat="46.30442" lon="6.29801">
        <ele>383.2</ele>
        <time>2020-04-15T13:10:10Z</time>
      </trkpt>
      <trkpt lat="46.3045" lon="6.29825">
        <ele>383.2</ele>
        <time>2020-04-15T13:10:16Z</time>
      </trkpt>
      <trkpt lat="46.30459" lon="6.29851">
        <ele>383.2</ele>
        <time>2020-04-15T13:10:23Z</time>
      </trkpt>
      <trkpt lat="46.30467" lon="6.29876">
        <ele>383.2</ele>
        <time>2020-04-15T13:10:29Z</time>
      </trkpt>
      <trkpt lat="46.30479" lon="6.299">
        <ele>383.2</ele>
        <time>2020-04-15T13:11:16Z</time>
      </trkpt>
      <trkpt lat="46.30484" lon="6.29926">
        <ele>383.2</ele>
        <time>2020-04-15T13:11:23Z</time>
      </trkpt>
      <trkpt lat="46.30468" lon="6.29942">
        <ele>383.2</ele>
        <time>2020-04-15T13:11:31Z</time>
      </trkpt>
      <trkpt lat="46.30449" lon="6.29957">
        <ele>383.2</ele>
        <time>2020-04-15T13:11:38Z</time>
      </trkpt>
      <trkpt lat="46.30427" lon="6.29976">
        <ele>383.2</ele>
        <time>2020-04-15T13:11:45Z</time>
      </trkpt>
      <trkpt lat="46.30408" lon="6.29992">
        <ele>383.2</ele>
        <time>2020-04-15T13:11:51Z</time>
      </trkpt>
      <trkpt lat="46.3039" lon="6.30006">
        <ele>383.2</ele>
        <time>2020-04-15T13:11:56Z</time>
      </trkpt>
      <trkpt lat="46.30373" lon="6.30021">
        <ele>383.2</ele>
        <time>2020-04-15T13:12:01Z</time>
      </trkpt>
      <trkpt lat="46.30354" lon="6.30037">
        <ele>383.2</ele>
        <time>2020-04-15T13:12:06Z</time>
      </trkpt>
      <trkpt lat="46.30336" lon="6.30054">
        <ele>383.2</ele>
        <time>2020-04-15T13:12:11Z</time>
      </trkpt>
      <trkpt lat="46.30319" lon="6.30069">
        <ele>383.2</ele>
        <time>2020-04-15T13:12:17Z</time>
      </trkpt>
      <trkpt lat="46.30303" lon="6.30082">
        <ele>383.2</ele>
        <time>2020-04-15T13:12:22Z</time>
      </trkpt>
      <trkpt lat="46.30288" lon="6.30099">
        <ele>383.2</ele>
        <time>2020-04-15T13:12:30Z</time>
      </trkpt>
      <trkpt lat="46.30269" lon="6.30117">
        <ele>383.2</ele>
        <time>2020-04-15T13:12:38Z</time>
      </trkpt>
      <trkpt lat="46.3025" lon="6.30133">
        <ele>383.2</ele>
        <time>2020-04-15T13:12:45Z</time>
      </trkpt>
      <trkpt lat="46.30233" lon="6.3015">
        <ele>383.2</ele>
        <time>2020-04-15T13:12:52Z</time>
      </trkpt>
      <trkpt lat="46.30216" lon="6.30165">
        <ele>383.2</ele>
        <time>2020-04-15T13:12:58Z</time>
      </trkpt>
      <trkpt lat="46.302" lon="6.30179">
        <ele>383.2</ele>
        <time>2020-04-15T13:13:03Z</time>
      </trkpt>
      <trkpt lat="46.30181" lon="6.30192">
        <ele>383.2</ele>
        <time>2020-04-15T13:13:08Z</time>
      </trkpt>
      <trkpt lat="46.30159" lon="6.30202">
        <ele>383.2</ele>
        <time>2020-04-15T13:13:13Z</time>
      </trkpt>
      <trkpt lat="46.30139" lon="6.3021">
        <ele>383.2</ele>
        <time>2020-04-15T13:13:18Z</time>
      </trkpt>
      <trkpt lat="46.30119" lon="6.30214">
        <ele>383.2</ele>
        <time>2020-04-15T13:13:23Z</time>
      </trkpt>
      <trkpt lat="46.30098" lon="6.30215">
        <ele>383.2</ele>
        <time>2020-04-15T13:13:28Z</time>
      </trkpt>
      <trkpt lat="46.30076" lon="6.30213">
        <ele>385.98</ele>
        <time>2020-04-15T13:13:33Z</time>
      </trkpt>
      <trkpt lat="46.30057" lon="6.30212">
        <ele>386.9</ele>
        <time>2020-04-15T13:13:37Z</time>
      </trkpt>
      <trkpt lat="46.30038" lon="6.30211">
        <ele>387.02</ele>
        <time>2020-04-15T13:13:41Z</time>
      </trkpt>
      <trkpt lat="46.30019" lon="6.30219">
        <ele>387.36</ele>
        <time>2020-04-15T13:13:46Z</time>
      </trkpt>
      <trkpt lat="46.30003" lon="6.30237">
        <ele>387.92</ele>
        <time>2020-04-15T13:13:51Z</time>
      </trkpt>
      <trkpt lat="46.29989" lon="6.3026">
        <ele>388.15</ele>
        <time>2020-04-15T13:13:56Z</time>
      </trkpt>
      <trkpt lat="46.29976" lon="6.30278">
        <ele>388.39</ele>
        <time>2020-04-15T13:14:01Z</time>
      </trkpt>
      <trkpt lat="46.29962" lon="6.30299">
        <ele>388.94</ele>
        <time>2020-04-15T13:14:07Z</time>
      </trkpt>
      <trkpt lat="46.2995" lon="6.30319">
        <ele>389.48</ele>
        <time>2020-04-15T13:14:13Z</time>
      </trkpt>
      <trkpt lat="46.29936" lon="6.3034">
        <ele>390.16</ele>
        <time>2020-04-15T13:14:19Z</time>
      </trkpt>
      <trkpt lat="46.29922" lon="6.30358">
        <ele>390.62</ele>
        <time>2020-04-15T13:14:24Z</time>
      </trkpt>
      <trkpt lat="46.29908" lon="6.30377">
        <ele>390.76</ele>
        <time>2020-04-15T13:14:30Z</time>
      </trkpt>
      <trkpt lat="46.29894" lon="6.30395">
        <ele>391.2</ele>
        <time>2020-04-15T13:14:36Z</time>
      </trkpt>
      <trkpt lat="46.2988" lon="6.30415">
        <ele>391.36</ele>
        <time>2020-04-15T13:14:43Z</time>
      </trkpt>
      <trkpt lat="46.29864" lon="6.30435">
        <ele>391.54</ele>
        <time>2020-04-15T13:14:50Z</time>
      </trkpt>
      <trkpt lat="46.29849" lon="6.30454">
        <ele>391.8</ele>
        <time>2020-04-15T13:14:56Z</time>
      </trkpt>
      <trkpt lat="46.29837" lon="6.30472">
        <ele>392.19</ele>
        <time>2020-04-15T13:15:03Z</time>
      </trkpt>
      <trkpt lat="46.29821" lon="6.30492">
        <ele>392.52</ele>
        <time>2020-04-15T13:15:10Z</time>
      </trkpt>
      <trkpt lat="46.29807" lon="6.30509">
        <ele>393.55</ele>
        <time>2020-04-15T13:15:17Z</time>
      </trkpt>
      <trkpt lat="46.29795" lon="6.30527">
        <ele>394.38</ele>
        <time>2020-04-15T13:15:24Z</time>
      </trkpt>
      <trkpt lat="46.2978" lon="6.30545">
        <ele>395.69</ele>
        <time>2020-04-15T13:15:32Z</time>
      </trkpt>
      <trkpt lat="46.29762" lon="6.30558">
        <ele>396.35</ele>
        <time>2020-04-15T13:15:39Z</time>
      </trkpt>
      <trkpt lat="46.29742" lon="6.30568">
        <ele>396.78</ele>
        <time>2020-04-15T13:15:45Z</time>
      </trkpt>
      <trkpt lat="46.29722" lon="6.30578">
        <ele>397.13</ele>
        <time>2020-04-15T13:15:51Z</time>
      </trkpt>
      <trkpt lat="46.29705" lon="6.30586">
        <ele>397.61</ele>
        <time>2020-04-15T13:15:56Z</time>
      </trkpt>
      <trkpt lat="46.29685" lon="6.30596">
        <ele>398</ele>
        <time>2020-04-15T13:16:03Z</time>
      </trkpt>
      <trkpt lat="46.29666" lon="6.30606">
        <ele>398.4</ele>
        <time>2020-04-15T13:16:10Z</time>
      </trkpt>
      <trkpt lat="46.29648" lon="6.30611">
        <ele>399.88</ele>
        <time>2020-04-15T13:16:43Z</time>
      </trkpt>
      <trkpt lat="46.2963" lon="6.30603">
        <ele>400.07</ele>
        <time>2020-04-15T13:16:59Z</time>
      </trkpt>
      <trkpt lat="46.29617" lon="6.30591">
        <ele>399.96</ele>
        <time>2020-04-15T13:17:08Z</time>
      </trkpt>
      <trkpt lat="46.29609" lon="6.306">
        <ele>400.18</ele>
        <time>2020-04-15T13:17:18Z</time>
      </trkpt>
      <trkpt lat="46.29603" lon="6.30624">
        <ele>400.43</ele>
        <time>2020-04-15T13:17:26Z</time>
      </trkpt>
      <trkpt lat="46.29591" lon="6.30648">
        <ele>400.86</ele>
        <time>2020-04-15T13:17:35Z</time>
      </trkpt>
      <trkpt lat="46.296" lon="6.30649">
        <ele>400.78</ele>
        <time>2020-04-15T13:17:43Z</time>
      </trkpt>
      <trkpt lat="46.29607" lon="6.30624">
        <ele>400.39</ele>
        <time>2020-04-15T13:17:49Z</time>
      </trkpt>
      <trkpt lat="46.2961" lon="6.30596">
        <ele>400.42</ele>
        <time>2020-04-15T13:17:55Z</time>
      </trkpt>
      <trkpt lat="46.29617" lon="6.3057">
        <ele>400.38</ele>
        <time>2020-04-15T13:18:03Z</time>
      </trkpt>
      <trkpt lat="46.29609" lon="6.30545">
        <ele>400.25</ele>
        <time>2020-04-15T13:18:09Z</time>
      </trkpt>
      <trkpt lat="46.296" lon="6.3052">
        <ele>400.17</ele>
        <time>2020-04-15T13:18:14Z</time>
      </trkpt>
      <trkpt lat="46.29589" lon="6.30493">
        <ele>400.21</ele>
        <time>2020-04-15T13:18:19Z</time>
      </trkpt>
      <trkpt lat="46.29575" lon="6.30468">
        <ele>400.18</ele>
        <time>2020-04-15T13:18:24Z</time>
      </trkpt>
      <trkpt lat="46.29561" lon="6.30447">
        <ele>399.86</ele>
        <time>2020-04-15T13:18:29Z</time>
      </trkpt>
      <trkpt lat="46.29549" lon="6.30424">
        <ele>399.76</ele>
        <time>2020-04-15T13:18:34Z</time>
      </trkpt>
      <trkpt lat="46.29535" lon="6.30398">
        <ele>399.68</ele>
        <time>2020-04-15T13:18:39Z</time>
      </trkpt>
      <trkpt lat="46.29522" lon="6.30372">
        <ele>399.64</ele>
        <time>2020-04-15T13:18:44Z</time>
      </trkpt>
      <trkpt lat="46.29508" lon="6.30351">
        <ele>399.55</ele>
        <time>2020-04-15T13:18:49Z</time>
      </trkpt>
      <trkpt lat="46.29495" lon="6.30333">
        <ele>399.38</ele>
        <time>2020-04-15T13:18:54Z</time>
      </trkpt>
      <trkpt lat="46.29479" lon="6.30314">
        <ele>399.12</ele>
        <time>2020-04-15T13:18:59Z</time>
      </trkpt>
      <trkpt lat="46.29465" lon="6.30296">
        <ele>398.93</ele>
        <time>2020-04-15T13:19:03Z</time>
      </trkpt>
      <trkpt lat="46.29449" lon="6.30276">
        <ele>398.82</ele>
        <time>2020-04-15T13:19:07Z</time>
      </trkpt>
      <trkpt lat="46.29434" lon="6.30255">
        <ele>398.82</ele>
        <time>2020-04-15T13:19:11Z</time>
      </trkpt>
      <trkpt lat="46.29419" lon="6.30237">
        <ele>398.78</ele>
        <time>2020-04-15T13:19:15Z</time>
      </trkpt>
      <trkpt lat="46.29403" lon="6.30217">
        <ele>398.71</ele>
        <time>2020-04-15T13:19:20Z</time>
      </trkpt>
      <trkpt lat="46.29389" lon="6.30198">
        <ele>398.45</ele>
        <time>2020-04-15T13:19:25Z</time>
      </trkpt>
      <trkpt lat="46.29374" lon="6.30178">
        <ele>398.26</ele>
        <time>2020-04-15T13:19:31Z</time>
      </trkpt>
      <trkpt lat="46.2936" lon="6.30163">
        <ele>398.28</ele>
        <time>2020-04-15T13:19:37Z</time>
      </trkpt>
      <trkpt lat="46.29345" lon="6.30145">
        <ele>398.57</ele>
        <time>2020-04-15T13:19:43Z</time>
      </trkpt>
      <trkpt lat="46.2933" lon="6.30128">
        <ele>398.6</ele>
        <time>2020-04-15T13:19:48Z</time>
      </trkpt>
      <trkpt lat="46.29313" lon="6.3011">
        <ele>398.63</ele>
        <time>2020-04-15T13:19:55Z</time>
      </trkpt>
      <trkpt lat="46.29298" lon="6.30092">
        <ele>398.58</ele>
        <time>2020-04-15T13:20:01Z</time>
      </trkpt>
      <trkpt lat="46.29282" lon="6.30074">
        <ele>398.44</ele>
        <time>2020-04-15T13:20:09Z</time>
      </trkpt>
      <trkpt lat="46.29264" lon="6.30056">
        <ele>398.13</ele>
        <time>2020-04-15T13:20:16Z</time>
      </trkpt>
      <trkpt lat="46.29246" lon="6.30039">
        <ele>397.73</ele>
        <time>2020-04-15T13:20:22Z</time>
      </trkpt>
      <trkpt lat="46.29229" lon="6.3002">
        <ele>397.59</ele>
        <time>2020-04-15T13:20:27Z</time>
      </trkpt>
      <trkpt lat="46.29214" lon="6.30001">
        <ele>397.44</ele>
        <time>2020-04-15T13:20:33Z</time>
      </trkpt>
      <trkpt lat="46.29198" lon="6.29983">
        <ele>397.52</ele>
        <time>2020-04-15T13:20:39Z</time>
      </trkpt>
      <trkpt lat="46.29182" lon="6.29963">
        <ele>397.65</ele>
        <time>2020-04-15T13:20:44Z</time>
      </trkpt>
      <trkpt lat="46.29168" lon="6.29945">
        <ele>397.7</ele>
        <time>2020-04-15T13:20:48Z</time>
      </trkpt>
      <trkpt lat="46.2915" lon="6.29929">
        <ele>397.76</ele>
        <time>2020-04-15T13:20:53Z</time>
      </trkpt>
      <trkpt lat="46.29131" lon="6.29914">
        <ele>398.05</ele>
        <time>2020-04-15T13:21:00Z</time>
      </trkpt>
      <trkpt lat="46.29114" lon="6.29895">
        <ele>398.52</ele>
        <time>2020-04-15T13:21:08Z</time>
      </trkpt>
      <trkpt lat="46.29096" lon="6.29877">
        <ele>398.85</ele>
        <time>2020-04-15T13:21:15Z</time>
      </trkpt>
      <trkpt lat="46.2908" lon="6.29857">
        <ele>399.12</ele>
        <time>2020-04-15T13:21:22Z</time>
      </trkpt>
      <trkpt lat="46.29063" lon="6.29836">
        <ele>399.86</ele>
        <time>2020-04-15T13:21:29Z</time>
      </trkpt>
      <trkpt lat="46.29049" lon="6.29814">
        <ele>400.78</ele>
        <time>2020-04-15T13:21:35Z</time>
      </trkpt>
      <trkpt lat="46.2903" lon="6.29793">
        <ele>400.91</ele>
        <time>2020-04-15T13:21:40Z</time>
      </trkpt>
      <trkpt lat="46.29017" lon="6.29767">
        <ele>400.25</ele>
        <time>2020-04-15T13:21:45Z</time>
      </trkpt>
      <trkpt lat="46.28999" lon="6.29737">
        <ele>399.82</ele>
        <time>2020-04-15T13:21:52Z</time>
      </trkpt>
      <trkpt lat="46.28977" lon="6.29709">
        <ele>399.52</ele>
        <time>2020-04-15T13:21:58Z</time>
      </trkpt>
      <trkpt lat="46.28957" lon="6.2969">
        <ele>399.3</ele>
        <time>2020-04-15T13:22:03Z</time>
      </trkpt>
      <trkpt lat="46.28939" lon="6.29696">
        <ele>398.71</ele>
        <time>2020-04-15T13:22:09Z</time>
      </trkpt>
      <trkpt lat="46.2893" lon="6.29724">
        <ele>398.31</ele>
        <time>2020-04-15T13:22:15Z</time>
      </trkpt>
      <trkpt lat="46.28924" lon="6.29754">
        <ele>398.38</ele>
        <time>2020-04-15T13:22:21Z</time>
      </trkpt>
      <trkpt lat="46.28919" lon="6.29784">
        <ele>398.43</ele>
        <time>2020-04-15T13:22:26Z</time>
      </trkpt>
      <trkpt lat="46.28914" lon="6.29813">
        <ele>398.59</ele>
        <time>2020-04-15T13:22:31Z</time>
      </trkpt>
      <trkpt lat="46.28909" lon="6.29839">
        <ele>398.75</ele>
        <time>2020-04-15T13:22:37Z</time>
      </trkpt>
      <trkpt lat="46.28894" lon="6.29835">
        <ele>398.59</ele>
        <time>2020-04-15T13:22:45Z</time>
      </trkpt>
      <trkpt lat="46.28878" lon="6.29815">
        <ele>398.5</ele>
        <time>2020-04-15T13:22:52Z</time>
      </trkpt>
      <trkpt lat="46.28864" lon="6.29797">
        <ele>398.73</ele>
        <time>2020-04-15T13:22:59Z</time>
      </trkpt>
      <trkpt lat="46.28849" lon="6.29779">
        <ele>398.88</ele>
        <time>2020-04-15T13:23:06Z</time>
      </trkpt>
      <trkpt lat="46.28833" lon="6.29762">
        <ele>398.95</ele>
        <time>2020-04-15T13:23:12Z</time>
      </trkpt>
      <trkpt lat="46.2882" lon="6.29741">
        <ele>399.05</ele>
        <time>2020-04-15T13:23:17Z</time>
      </trkpt>
      <trkpt lat="46.28807" lon="6.29723">
        <ele>398.84</ele>
        <time>2020-04-15T13:23:22Z</time>
      </trkpt>
      <trkpt lat="46.28792" lon="6.29703">
        <ele>398.72</ele>
        <time>2020-04-15T13:23:28Z</time>
      </trkpt>
      <trkpt lat="46.28777" lon="6.29684">
        <ele>398.49</ele>
        <time>2020-04-15T13:23:33Z</time>
      </trkpt>
      <trkpt lat="46.28763" lon="6.29667">
        <ele>398.31</ele>
        <time>2020-04-15T13:23:37Z</time>
      </trkpt>
      <trkpt lat="46.28747" lon="6.29646">
        <ele>398.3</ele>
        <time>2020-04-15T13:23:42Z</time>
      </trkpt>
      <trkpt lat="46.28735" lon="6.29627">
        <ele>398.3</ele>
        <time>2020-04-15T13:23:47Z</time>
      </trkpt>
      <trkpt lat="46.28721" lon="6.29609">
        <ele>398.3</ele>
        <time>2020-04-15T13:23:52Z</time>
      </trkpt>
      <trkpt lat="46.28705" lon="6.29589">
        <ele>398.3</ele>
        <time>2020-04-15T13:23:58Z</time>
      </trkpt>
      <trkpt lat="46.28692" lon="6.29568">
        <ele>398.3</ele>
        <time>2020-04-15T13:24:05Z</time>
      </trkpt>
      <trkpt lat="46.28682" lon="6.29543">
        <ele>398.3</ele>
        <time>2020-04-15T13:24:13Z</time>
      </trkpt>
      <trkpt lat="46.28662" lon="6.29517">
        <ele>398.3</ele>
        <time>2020-04-15T13:24:18Z</time>
      </trkpt>
      <trkpt lat="46.28645" lon="6.29497">
        <ele>398.3</ele>
        <time>2020-04-15T13:24:22Z</time>
      </trkpt>
      <trkpt lat="46.28628" lon="6.29478">
        <ele>398.3</ele>
        <time>2020-04-15T13:24:27Z</time>
      </trkpt>
      <trkpt lat="46.28608" lon="6.29464">
        <ele>398.3</ele>
        <time>2020-04-15T13:24:33Z</time>
      </trkpt>
      <trkpt lat="46.28586" lon="6.29465">
        <ele>398.3</ele>
        <time>2020-04-15T13:24:39Z</time>
      </trkpt>
      <trkpt lat="46.28567" lon="6.29476">
        <ele>398.3</ele>
        <time>2020-04-15T13:24:46Z</time>
      </trkpt>
      <trkpt lat="46.28548" lon="6.29492">
        <ele>398.3</ele>
        <time>2020-04-15T13:24:53Z</time>
      </trkpt>
      <trkpt lat="46.28526" lon="6.29505">
        <ele>398.3</ele>
        <time>2020-04-15T13:24:59Z</time>
      </trkpt>
      <trkpt lat="46.28496" lon="6.29512">
        <ele>398.3</ele>
        <time>2020-04-15T13:25:13Z</time>
      </trkpt>
      <trkpt lat="46.28473" lon="6.29517">
        <ele>398.3</ele>
        <time>2020-04-15T13:25:20Z</time>
      </trkpt>
      <trkpt lat="46.2846" lon="6.29537">
        <ele>398.3</ele>
        <time>2020-04-15T13:25:26Z</time>
      </trkpt>
      <trkpt lat="46.28445" lon="6.29548">
        <ele>398.3</ele>
        <time>2020-04-15T13:25:37Z</time>
      </trkpt>
      <trkpt lat="46.28418" lon="6.29527">
        <ele>398.3</ele>
        <time>2020-04-15T13:25:51Z</time>
      </trkpt>
      <trkpt lat="46.28388" lon="6.29516">
        <ele>398.3</ele>
        <time>2020-04-15T13:26:01Z</time>
      </trkpt>
      <trkpt lat="46.28365" lon="6.29498">
        <ele>398.3</ele>
        <time>2020-04-15T13:26:12Z</time>
      </trkpt>
      <trkpt lat="46.28338" lon="6.29482">
        <ele>398.3</ele>
        <time>2020-04-15T13:26:20Z</time>
      </trkpt>
      <trkpt lat="46.28309" lon="6.29477">
        <ele>398.3</ele>
        <time>2020-04-15T13:26:27Z</time>
      </trkpt>
      <trkpt lat="46.28277" lon="6.29469">
        <ele>398.3</ele>
        <time>2020-04-15T13:26:35Z</time>
      </trkpt>
      <trkpt lat="46.28251" lon="6.29461">
        <ele>398.3</ele>
        <time>2020-04-15T13:26:41Z</time>
      </trkpt>
      <trkpt lat="46.28226" lon="6.29449">
        <ele>398.3</ele>
        <time>2020-04-15T13:26:49Z</time>
      </trkpt>
      <trkpt lat="46.28199" lon="6.29426">
        <ele>398.3</ele>
        <time>2020-04-15T13:27:00Z</time>
      </trkpt>
      <trkpt lat="46.28177" lon="6.29402">
        <ele>398.3</ele>
        <time>2020-04-15T13:27:08Z</time>
      </trkpt>
      <trkpt lat="46.28148" lon="6.29385">
        <ele>398.3</ele>
        <time>2020-04-15T13:27:21Z</time>
      </trkpt>
      <trkpt lat="46.2812" lon="6.29371">
        <ele>398.3</ele>
        <time>2020-04-15T13:27:33Z</time>
      </trkpt>
      <trkpt lat="46.28092" lon="6.29354">
        <ele>398.3</ele>
        <time>2020-04-15T13:27:46Z</time>
      </trkpt>
      <trkpt lat="46.28061" lon="6.29327">
        <ele>398.3</ele>
        <time>2020-04-15T13:28:00Z</time>
      </trkpt>
      <trkpt lat="46.28016" lon="6.29327">
        <ele>398.3</ele>
        <time>2020-04-15T13:28:56Z</time>
      </trkpt>
      <trkpt lat="46.28007" lon="6.29296">
        <ele>398.3</ele>
        <time>2020-04-15T13:29:32Z</time>
      </trkpt>
      <trkpt lat="46.27991" lon="6.29279">
        <ele>398.3</ele>
        <time>2020-04-15T13:29:42Z</time>
      </trkpt>
      <trkpt lat="46.27976" lon="6.29257">
        <ele>398.3</ele>
        <time>2020-04-15T13:29:52Z</time>
      </trkpt>
      <trkpt lat="46.27956" lon="6.29233">
        <ele>398.3</ele>
        <time>2020-04-15T13:30:07Z</time>
      </trkpt>
      <trkpt lat="46.27925" lon="6.29212">
        <ele>398.3</ele>
        <time>2020-04-15T13:30:18Z</time>
      </trkpt>
      <trkpt lat="46.27903" lon="6.29204">
        <ele>398.3</ele>
        <time>2020-04-15T13:30:27Z</time>
      </trkpt>
      <trkpt lat="46.27882" lon="6.29171">
        <ele>398.3</ele>
        <time>2020-04-15T13:30:39Z</time>
      </trkpt>
      <trkpt lat="46.27859" lon="6.29153">
        <ele>398.3</ele>
        <time>2020-04-15T13:30:50Z</time>
      </trkpt>
      <trkpt lat="46.27842" lon="6.29121">
        <ele>398.3</ele>
        <time>2020-04-15T13:31:03Z</time>
      </trkpt>
      <trkpt lat="46.27819" lon="6.29087">
        <ele>398.3</ele>
        <time>2020-04-15T13:31:15Z</time>
      </trkpt>
      <trkpt lat="46.27802" lon="6.29053">
        <ele>398.3</ele>
        <time>2020-04-15T13:31:28Z</time>
      </trkpt>
      <trkpt lat="46.27782" lon="6.29025">
        <ele>398.3</ele>
        <time>2020-04-15T13:31:42Z</time>
      </trkpt>
      <trkpt lat="46.27751" lon="6.29018">
        <ele>401.48</ele>
        <time>2020-04-15T13:31:53Z</time>
      </trkpt>
      <trkpt lat="46.27726" lon="6.29002">
        <ele>402.18</ele>
        <time>2020-04-15T13:32:07Z</time>
      </trkpt>
      <trkpt lat="46.27698" lon="6.28991">
        <ele>402.1</ele>
        <time>2020-04-15T13:32:20Z</time>
      </trkpt>
      <trkpt lat="46.27669" lon="6.28946">
        <ele>402.72</ele>
        <time>2020-04-15T13:34:39Z</time>
      </trkpt>
      <trkpt lat="46.27669" lon="6.28916">
        <ele>402.79</ele>
        <time>2020-04-15T13:34:50Z</time>
      </trkpt>
      <trkpt lat="46.27676" lon="6.28885">
        <ele>402.7</ele>
        <time>2020-04-15T13:34:57Z</time>
      </trkpt>
      <trkpt lat="46.27685" lon="6.28851">
        <ele>402.68</ele>
        <time>2020-04-15T13:35:08Z</time>
      </trkpt>
      <trkpt lat="46.27687" lon="6.28813">
        <ele>403.08</ele>
        <time>2020-04-15T13:35:23Z</time>
      </trkpt>
      <trkpt lat="46.27682" lon="6.28774">
        <ele>403.47</ele>
        <time>2020-04-15T13:35:47Z</time>
      </trkpt>
      <trkpt lat="46.27691" lon="6.28749">
        <ele>403.58</ele>
        <time>2020-04-15T13:35:55Z</time>
      </trkpt>
      <trkpt lat="46.27699" lon="6.28716">
        <ele>403.5</ele>
        <time>2020-04-15T13:36:06Z</time>
      </trkpt>
      <trkpt lat="46.27702" lon="6.28682">
        <ele>403.49</ele>
        <time>2020-04-15T13:36:16Z</time>
      </trkpt>
      <trkpt lat="46.27704" lon="6.28648">
        <ele>403.58</ele>
        <time>2020-04-15T13:36:26Z</time>
      </trkpt>
      <trkpt lat="46.27695" lon="6.28609">
        <ele>403.54</ele>
        <time>2020-04-15T13:36:36Z</time>
      </trkpt>
      <trkpt lat="46.2768" lon="6.28578">
        <ele>403.34</ele>
        <time>2020-04-15T13:36:46Z</time>
      </trkpt>
      <trkpt lat="46.27663" lon="6.28547">
        <ele>403.58</ele>
        <time>2020-04-15T13:36:56Z</time>
      </trkpt>
      <trkpt lat="46.27645" lon="6.28508">
        <ele>403.58</ele>
        <time>2020-04-15T13:37:09Z</time>
      </trkpt>
      <trkpt lat="46.27623" lon="6.28472">
        <ele>403.58</ele>
        <time>2020-04-15T13:37:22Z</time>
      </trkpt>
      <trkpt lat="46.27603" lon="6.28446">
        <ele>403.58</ele>
        <time>2020-04-15T13:37:33Z</time>
      </trkpt>
      <trkpt lat="46.27589" lon="6.28412">
        <ele>403.58</ele>
        <time>2020-04-15T13:37:46Z</time>
      </trkpt>
      <trkpt lat="46.2758" lon="6.28376">
        <ele>403.58</ele>
        <time>2020-04-15T13:37:58Z</time>
      </trkpt>
      <trkpt lat="46.2757" lon="6.28342">
        <ele>403.58</ele>
        <time>2020-04-15T13:38:08Z</time>
      </trkpt>
      <trkpt lat="46.2756" lon="6.28312">
        <ele>403.58</ele>
        <time>2020-04-15T13:38:15Z</time>
      </trkpt>
      <trkpt lat="46.27547" lon="6.28281">
        <ele>403.58</ele>
        <time>2020-04-15T13:38:22Z</time>
      </trkpt>
      <trkpt lat="46.27527" lon="6.28246">
        <ele>403.58</ele>
        <time>2020-04-15T13:38:33Z</time>
      </trkpt>
      <trkpt lat="46.27513" lon="6.28222">
        <ele>403.58</ele>
        <time>2020-04-15T13:38:40Z</time>
      </trkpt>
      <trkpt lat="46.27504" lon="6.28188">
        <ele>403.58</ele>
        <time>2020-04-15T13:38:51Z</time>
      </trkpt>
      <trkpt lat="46.27488" lon="6.28156">
        <ele>403.58</ele>
        <time>2020-04-15T13:39:01Z</time>
      </trkpt>
      <trkpt lat="46.27472" lon="6.28122">
        <ele>403.58</ele>
        <time>2020-04-15T13:39:13Z</time>
      </trkpt>
      <trkpt lat="46.27455" lon="6.28096">
        <ele>403.58</ele>
        <time>2020-04-15T13:39:20Z</time>
      </trkpt>
      <trkpt lat="46.27424" lon="6.28053">
        <ele>403.58</ele>
        <time>2020-04-15T13:39:47Z</time>
      </trkpt>
      <trkpt lat="46.27417" lon="6.28014">
        <ele>401.19</ele>
        <time>2020-04-15T13:40:02Z</time>
      </trkpt>
      <trkpt lat="46.27408" lon="6.27984">
        <ele>401.22</ele>
        <time>2020-04-15T13:40:10Z</time>
      </trkpt>
      <trkpt lat="46.274" lon="6.27958">
        <ele>401.76</ele>
        <time>2020-04-15T13:40:18Z</time>
      </trkpt>
      <trkpt lat="46.2739" lon="6.2792">
        <ele>402.26</ele>
        <time>2020-04-15T13:40:32Z</time>
      </trkpt>
      <trkpt lat="46.27385" lon="6.27883">
        <ele>402.73</ele>
        <time>2020-04-15T13:40:44Z</time>
      </trkpt>
      <trkpt lat="46.27384" lon="6.27851">
        <ele>402.9</ele>
        <time>2020-04-15T13:40:55Z</time>
      </trkpt>
      <trkpt lat="46.27384" lon="6.27819">
        <ele>403.08</ele>
        <time>2020-04-15T13:41:04Z</time>
      </trkpt>
      <trkpt lat="46.27373" lon="6.27781">
        <ele>403.44</ele>
        <time>2020-04-15T13:41:16Z</time>
      </trkpt>
      <trkpt lat="46.27363" lon="6.27753">
        <ele>403.47</ele>
        <time>2020-04-15T13:41:26Z</time>
      </trkpt>
      <trkpt lat="46.27348" lon="6.27726">
        <ele>403.89</ele>
        <time>2020-04-15T13:41:37Z</time>
      </trkpt>
      <trkpt lat="46.27332" lon="6.27695">
        <ele>403.72</ele>
        <time>2020-04-15T13:41:49Z</time>
      </trkpt>
      <trkpt lat="46.27317" lon="6.27655">
        <ele>403.56</ele>
        <time>2020-04-15T13:42:15Z</time>
      </trkpt>
      <trkpt lat="46.27303" lon="6.2763">
        <ele>403.33</ele>
        <time>2020-04-15T13:42:26Z</time>
      </trkpt>
      <trkpt lat="46.27292" lon="6.276">
        <ele>402.68</ele>
        <time>2020-04-15T13:42:35Z</time>
      </trkpt>
      <trkpt lat="46.27278" lon="6.27564">
        <ele>401.86</ele>
        <time>2020-04-15T13:42:47Z</time>
      </trkpt>
      <trkpt lat="46.27265" lon="6.27535">
        <ele>401.71</ele>
        <time>2020-04-15T13:42:53Z</time>
      </trkpt>
      <trkpt lat="46.27255" lon="6.27503">
        <ele>401.06</ele>
        <time>2020-04-15T13:42:58Z</time>
      </trkpt>
      <trkpt lat="46.27246" lon="6.27471">
        <ele>400.75</ele>
        <time>2020-04-15T13:43:06Z</time>
      </trkpt>
      <trkpt lat="46.27239" lon="6.27437">
        <ele>400.85</ele>
        <time>2020-04-15T13:43:17Z</time>
      </trkpt>
      <trkpt lat="46.27233" lon="6.27406">
        <ele>400.46</ele>
        <time>2020-04-15T13:43:25Z</time>
      </trkpt>
      <trkpt lat="46.27231" lon="6.2738">
        <ele>399.8</ele>
        <time>2020-04-15T13:43:32Z</time>
      </trkpt>
      <trkpt lat="46.27244" lon="6.27353">
        <ele>400.14</ele>
        <time>2020-04-15T13:43:41Z</time>
      </trkpt>
      <trkpt lat="46.27256" lon="6.27326">
        <ele>400.48</ele>
        <time>2020-04-15T13:43:46Z</time>
      </trkpt>
      <trkpt lat="46.27269" lon="6.27296">
        <ele>400.48</ele>
        <time>2020-04-15T13:43:51Z</time>
      </trkpt>
      <trkpt lat="46.27279" lon="6.27265">
        <ele>400.37</ele>
        <time>2020-04-15T13:43:56Z</time>
      </trkpt>
      <trkpt lat="46.27289" lon="6.27234">
        <ele>399.96</ele>
        <time>2020-04-15T13:44:02Z</time>
      </trkpt>
      <trkpt lat="46.273" lon="6.27203">
        <ele>399.31</ele>
        <time>2020-04-15T13:44:11Z</time>
      </trkpt>
      <trkpt lat="46.27311" lon="6.27171">
        <ele>399.27</ele>
        <time>2020-04-15T13:44:17Z</time>
      </trkpt>
      <trkpt lat="46.27321" lon="6.2714">
        <ele>399.31</ele>
        <time>2020-04-15T13:44:22Z</time>
      </trkpt>
      <trkpt lat="46.27332" lon="6.2711">
        <ele>399.21</ele>
        <time>2020-04-15T13:44:28Z</time>
      </trkpt>
      <trkpt lat="46.27341" lon="6.27079">
        <ele>398.77</ele>
        <time>2020-04-15T13:44:35Z</time>
      </trkpt>
      <trkpt lat="46.27336" lon="6.27054">
        <ele>398.61</ele>
        <time>2020-04-15T13:44:46Z</time>
      </trkpt>
      <trkpt lat="46.27317" lon="6.27039">
        <ele>398.51</ele>
        <time>2020-04-15T13:44:55Z</time>
      </trkpt>
      <trkpt lat="46.27306" lon="6.2704">
        <ele>398.46</ele>
        <time>2020-04-15T13:45:09Z</time>
      </trkpt>
      <trkpt lat="46.27323" lon="6.27052">
        <ele>398.72</ele>
        <time>2020-04-15T13:45:16Z</time>
      </trkpt>
      <trkpt lat="46.2734" lon="6.27063">
        <ele>398.76</ele>
        <time>2020-04-15T13:45:25Z</time>
      </trkpt>
      <trkpt lat="46.27356" lon="6.27075">
        <ele>398.59</ele>
        <time>2020-04-15T13:45:32Z</time>
      </trkpt>
      <trkpt lat="46.27375" lon="6.27089">
        <ele>398.49</ele>
        <time>2020-04-15T13:45:38Z</time>
      </trkpt>
      <trkpt lat="46.27394" lon="6.271">
        <ele>397.96</ele>
        <time>2020-04-15T13:45:47Z</time>
      </trkpt>
      <trkpt lat="46.27413" lon="6.27115">
        <ele>397.81</ele>
        <time>2020-04-15T13:45:54Z</time>
      </trkpt>
      <trkpt lat="46.27432" lon="6.27118">
        <ele>397.97</ele>
        <time>2020-04-15T13:46:02Z</time>
      </trkpt>
      <trkpt lat="46.27442" lon="6.27092">
        <ele>397.49</ele>
        <time>2020-04-15T13:46:09Z</time>
      </trkpt>
      <trkpt lat="46.27454" lon="6.27064">
        <ele>397.46</ele>
        <time>2020-04-15T13:46:15Z</time>
      </trkpt>
      <trkpt lat="46.27463" lon="6.27039">
        <ele>397.27</ele>
        <time>2020-04-15T13:46:19Z</time>
      </trkpt>
      <trkpt lat="46.27471" lon="6.27014">
        <ele>397.11</ele>
        <time>2020-04-15T13:46:23Z</time>
      </trkpt>
      <trkpt lat="46.27482" lon="6.26986">
        <ele>396.97</ele>
        <time>2020-04-15T13:46:28Z</time>
      </trkpt>
      <trkpt lat="46.2749" lon="6.26959">
        <ele>396.61</ele>
        <time>2020-04-15T13:46:33Z</time>
      </trkpt>
      <trkpt lat="46.27498" lon="6.26931">
        <ele>396.08</ele>
        <time>2020-04-15T13:46:38Z</time>
      </trkpt>
      <trkpt lat="46.27507" lon="6.26908">
        <ele>395.56</ele>
        <time>2020-04-15T13:46:42Z</time>
      </trkpt>
      <trkpt lat="46.27518" lon="6.26885">
        <ele>395.01</ele>
        <time>2020-04-15T13:46:46Z</time>
      </trkpt>
      <trkpt lat="46.27529" lon="6.26859">
        <ele>394.52</ele>
        <time>2020-04-15T13:46:51Z</time>
      </trkpt>
      <trkpt lat="46.27537" lon="6.26832">
        <ele>393.77</ele>
        <time>2020-04-15T13:46:56Z</time>
      </trkpt>
      <trkpt lat="46.27546" lon="6.26805">
        <ele>393.22</ele>
        <time>2020-04-15T13:47:01Z</time>
      </trkpt>
      <trkpt lat="46.27555" lon="6.26779">
        <ele>392.99</ele>
        <time>2020-04-15T13:47:06Z</time>
      </trkpt>
      <trkpt lat="46.27564" lon="6.26749">
        <ele>392.96</ele>
        <time>2020-04-15T13:47:11Z</time>
      </trkpt>
      <trkpt lat="46.27571" lon="6.26721">
        <ele>392.86</ele>
        <time>2020-04-15T13:47:15Z</time>
      </trkpt>
      <trkpt lat="46.27576" lon="6.26689">
        <ele>392.7</ele>
        <time>2020-04-15T13:47:19Z</time>
      </trkpt>
      <trkpt lat="46.27581" lon="6.26658">
        <ele>392.13</ele>
        <time>2020-04-15T13:47:23Z</time>
      </trkpt>
      <trkpt lat="46.27578" lon="6.26633">
        <ele>391.59</ele>
        <time>2020-04-15T13:47:27Z</time>
      </trkpt>
      <trkpt lat="46.27562" lon="6.26616">
        <ele>391.48</ele>
        <time>2020-04-15T13:47:33Z</time>
      </trkpt>
      <trkpt lat="46.27543" lon="6.26599">
        <ele>391.58</ele>
        <time>2020-04-15T13:47:39Z</time>
      </trkpt>
      <trkpt lat="46.27523" lon="6.26581">
        <ele>391.61</ele>
        <time>2020-04-15T13:47:44Z</time>
      </trkpt>
      <trkpt lat="46.27505" lon="6.26564">
        <ele>391.62</ele>
        <time>2020-04-15T13:47:48Z</time>
      </trkpt>
      <trkpt lat="46.27485" lon="6.26546">
        <ele>391.69</ele>
        <time>2020-04-15T13:47:52Z</time>
      </trkpt>
      <trkpt lat="46.27469" lon="6.26532">
        <ele>391.85</ele>
        <time>2020-04-15T13:47:55Z</time>
      </trkpt>
      <trkpt lat="46.27454" lon="6.26518">
        <ele>392.02</ele>
        <time>2020-04-15T13:47:58Z</time>
      </trkpt>
      <trkpt lat="46.27436" lon="6.26499">
        <ele>392.44</ele>
        <time>2020-04-15T13:48:02Z</time>
      </trkpt>
      <trkpt lat="46.27424" lon="6.26477">
        <ele>392.49</ele>
        <time>2020-04-15T13:48:06Z</time>
      </trkpt>
      <trkpt lat="46.27415" lon="6.2645">
        <ele>392.49</ele>
        <time>2020-04-15T13:48:11Z</time>
      </trkpt>
      <trkpt lat="46.27406" lon="6.26424">
        <ele>392.49</ele>
        <time>2020-04-15T13:48:16Z</time>
      </trkpt>
      <trkpt lat="46.27397" lon="6.26395">
        <ele>392.49</ele>
        <time>2020-04-15T13:48:21Z</time>
      </trkpt>
      <trkpt lat="46.27387" lon="6.26367">
        <ele>392.49</ele>
        <time>2020-04-15T13:48:26Z</time>
      </trkpt>
      <trkpt lat="46.27377" lon="6.26344">
        <ele>392.49</ele>
        <time>2020-04-15T13:48:31Z</time>
      </trkpt>
      <trkpt lat="46.27369" lon="6.26321">
        <ele>392.49</ele>
        <time>2020-04-15T13:48:36Z</time>
      </trkpt>
      <trkpt lat="46.27361" lon="6.26296">
        <ele>392.49</ele>
        <time>2020-04-15T13:48:41Z</time>
      </trkpt>
      <trkpt lat="46.27356" lon="6.26264">
        <ele>392.49</ele>
        <time>2020-04-15T13:48:46Z</time>
      </trkpt>
      <trkpt lat="46.27348" lon="6.26238">
        <ele>392.49</ele>
        <time>2020-04-15T13:48:51Z</time>
      </trkpt>
      <trkpt lat="46.27327" lon="6.2623">
        <ele>392.49</ele>
        <time>2020-04-15T13:48:58Z</time>
      </trkpt>
      <trkpt lat="46.27308" lon="6.26222">
        <ele>392.49</ele>
        <time>2020-04-15T13:49:05Z</time>
      </trkpt>
      <trkpt lat="46.27291" lon="6.2621">
        <ele>392.49</ele>
        <time>2020-04-15T13:49:10Z</time>
      </trkpt>
      <trkpt lat="46.27274" lon="6.26198">
        <ele>392.49</ele>
        <time>2020-04-15T13:49:14Z</time>
      </trkpt>
      <trkpt lat="46.27254" lon="6.26183">
        <ele>392.49</ele>
        <time>2020-04-15T13:49:18Z</time>
      </trkpt>
      <trkpt lat="46.27237" lon="6.26171">
        <ele>392.49</ele>
        <time>2020-04-15T13:49:21Z</time>
      </trkpt>
      <trkpt lat="46.27218" lon="6.26157">
        <ele>392.49</ele>
        <time>2020-04-15T13:49:25Z</time>
      </trkpt>
      <trkpt lat="46.27201" lon="6.26145">
        <ele>392.49</ele>
        <time>2020-04-15T13:49:29Z</time>
      </trkpt>
      <trkpt lat="46.27184" lon="6.26134">
        <ele>392.49</ele>
        <time>2020-04-15T13:49:34Z</time>
      </trkpt>
      <trkpt lat="46.27166" lon="6.26121">
        <ele>392.49</ele>
        <time>2020-04-15T13:49:41Z</time>
      </trkpt>
      <trkpt lat="46.27152" lon="6.26114">
        <ele>392.49</ele>
        <time>2020-04-15T13:49:52Z</time>
      </trkpt>
      <trkpt lat="46.27133" lon="6.261">
        <ele>392.49</ele>
        <time>2020-04-15T13:49:59Z</time>
      </trkpt>
      <trkpt lat="46.27115" lon="6.26089">
        <ele>392.49</ele>
        <time>2020-04-15T13:50:05Z</time>
      </trkpt>
      <trkpt lat="46.27096" lon="6.2608">
        <ele>392.49</ele>
        <time>2020-04-15T13:50:11Z</time>
      </trkpt>
      <trkpt lat="46.27075" lon="6.26066">
        <ele>392.49</ele>
        <time>2020-04-15T13:50:16Z</time>
      </trkpt>
      <trkpt lat="46.27057" lon="6.26052">
        <ele>392.49</ele>
        <time>2020-04-15T13:50:20Z</time>
      </trkpt>
      <trkpt lat="46.2704" lon="6.26043">
        <ele>392.49</ele>
        <time>2020-04-15T13:50:24Z</time>
      </trkpt>
      <trkpt lat="46.27025" lon="6.26028">
        <ele>392.49</ele>
        <time>2020-04-15T13:50:29Z</time>
      </trkpt>
      <trkpt lat="46.27016" lon="6.26006">
        <ele>392.49</ele>
        <time>2020-04-15T13:50:36Z</time>
      </trkpt>
      <trkpt lat="46.27" lon="6.25986">
        <ele>392.49</ele>
        <time>2020-04-15T13:50:43Z</time>
      </trkpt>
      <trkpt lat="46.26981" lon="6.25976">
        <ele>392.49</ele>
        <time>2020-04-15T13:50:49Z</time>
      </trkpt>
      <trkpt lat="46.26964" lon="6.25965">
        <ele>392.49</ele>
        <time>2020-04-15T13:50:56Z</time>
      </trkpt>
      <trkpt lat="46.26956" lon="6.2594">
        <ele>392.49</ele>
        <time>2020-04-15T13:51:01Z</time>
      </trkpt>
      <trkpt lat="46.26944" lon="6.25921">
        <ele>392.49</ele>
        <time>2020-04-15T13:51:07Z</time>
      </trkpt>
      <trkpt lat="46.26927" lon="6.2591">
        <ele>392.49</ele>
        <time>2020-04-15T13:51:13Z</time>
      </trkpt>
      <trkpt lat="46.26913" lon="6.25889">
        <ele>392.49</ele>
        <time>2020-04-15T13:51:20Z</time>
      </trkpt>
      <trkpt lat="46.26908" lon="6.25861">
        <ele>392.49</ele>
        <time>2020-04-15T13:51:26Z</time>
      </trkpt>
      <trkpt lat="46.26906" lon="6.25831">
        <ele>392.49</ele>
        <time>2020-04-15T13:51:32Z</time>
      </trkpt>
      <trkpt lat="46.26895" lon="6.25813">
        <ele>392.49</ele>
        <time>2020-04-15T13:51:39Z</time>
      </trkpt>
      <trkpt lat="46.26875" lon="6.2581">
        <ele>392.49</ele>
        <time>2020-04-15T13:51:46Z</time>
      </trkpt>
      <trkpt lat="46.26859" lon="6.25799">
        <ele>392.49</ele>
        <time>2020-04-15T13:51:52Z</time>
      </trkpt>
      <trkpt lat="46.26847" lon="6.25779">
        <ele>392.49</ele>
        <time>2020-04-15T13:51:58Z</time>
      </trkpt>
      <trkpt lat="46.26843" lon="6.25751">
        <ele>392.49</ele>
        <time>2020-04-15T13:52:04Z</time>
      </trkpt>
      <trkpt lat="46.26829" lon="6.25736">
        <ele>392.49</ele>
        <time>2020-04-15T13:52:19Z</time>
      </trkpt>
      <trkpt lat="46.26812" lon="6.25721">
        <ele>392.49</ele>
        <time>2020-04-15T13:52:29Z</time>
      </trkpt>
      <trkpt lat="46.26813" lon="6.25701">
        <ele>392.49</ele>
        <time>2020-04-15T13:53:12Z</time>
      </trkpt>
      <trkpt lat="46.26803" lon="6.25696">
        <ele>397.03</ele>
        <time>2020-04-15T14:21:22Z</time>
      </trkpt>
    </trkseg>
  </trk>
</gpx>